<?xml version="1.0" encoding="UTF-8" standalone="no" ?>
<gpx xmlns="http://www.topografix.com/GPX/1/1" xmlns:xsi="http://www.w3.org/2001/XMLSchema-instance" xsi:schemaLocation="http://www.topografix.com/GPX/1/1 http://www.topografix.com/GPX/1/1/gpx.xsd" version="1.1" creator="VisuGPX - https://www.visugpx.com">
  <metadata>
    <name>Tracé actuel: 27 SEPT 2020 12:55</name>
  </metadata>
  <trk>
    <name><![CDATA[Tracé actuel: 27 SEPT 2020 12:55]]></name>
    <trkseg>
      <trkpt lat="49.63431" lon="4.9802">
        <ele>197.69</ele>
        <time>2020-09-27T10:55:37Z</time>
      </trkpt>
      <trkpt lat="49.63438" lon="4.98051">
        <ele>176.06</ele>
        <time>2020-09-27T10:55:55Z</time>
      </trkpt>
      <trkpt lat="49.63438" lon="4.9805">
        <ele>176.06</ele>
        <time>2020-09-27T10:55:56Z</time>
      </trkpt>
      <trkpt lat="49.63424" lon="4.98035">
        <ele>174.62</ele>
        <time>2020-09-27T10:56:16Z</time>
      </trkpt>
      <trkpt lat="49.6341" lon="4.98017">
        <ele>177.5</ele>
        <time>2020-09-27T10:56:34Z</time>
      </trkpt>
      <trkpt lat="49.63402" lon="4.97997">
        <ele>177.02</ele>
        <time>2020-09-27T10:56:51Z</time>
      </trkpt>
      <trkpt lat="49.63395" lon="4.97983">
        <ele>174.14</ele>
        <time>2020-09-27T10:57:07Z</time>
      </trkpt>
      <trkpt lat="49.63387" lon="4.97969">
        <ele>173.17</ele>
        <time>2020-09-27T10:57:21Z</time>
      </trkpt>
      <trkpt lat="49.63389" lon="4.97949">
        <ele>170.29</ele>
        <time>2020-09-27T10:57:38Z</time>
      </trkpt>
      <trkpt lat="49.63402" lon="4.97936">
        <ele>167.41</ele>
        <time>2020-09-27T10:57:55Z</time>
      </trkpt>
      <trkpt lat="49.63415" lon="4.97916">
        <ele>165</ele>
        <time>2020-09-27T10:58:14Z</time>
      </trkpt>
      <trkpt lat="49.63423" lon="4.97906">
        <ele>167.41</ele>
        <time>2020-09-27T10:58:33Z</time>
      </trkpt>
      <trkpt lat="49.63442" lon="4.9789">
        <ele>159.72</ele>
        <time>2020-09-27T10:58:56Z</time>
      </trkpt>
      <trkpt lat="49.63461" lon="4.97872">
        <ele>154.91</ele>
        <time>2020-09-27T10:59:17Z</time>
      </trkpt>
      <trkpt lat="49.63477" lon="4.97857">
        <ele>155.39</ele>
        <time>2020-09-27T10:59:39Z</time>
      </trkpt>
      <trkpt lat="49.63493" lon="4.9783">
        <ele>152.03</ele>
        <time>2020-09-27T10:59:59Z</time>
      </trkpt>
      <trkpt lat="49.63511" lon="4.9781">
        <ele>152.03</ele>
        <time>2020-09-27T11:00:19Z</time>
      </trkpt>
      <trkpt lat="49.63525" lon="4.97802">
        <ele>148.66</ele>
        <time>2020-09-27T11:00:35Z</time>
      </trkpt>
      <trkpt lat="49.6354" lon="4.97782">
        <ele>146.26</ele>
        <time>2020-09-27T11:00:56Z</time>
      </trkpt>
      <trkpt lat="49.6355" lon="4.97749">
        <ele>146.74</ele>
        <time>2020-09-27T11:01:18Z</time>
      </trkpt>
      <trkpt lat="49.63565" lon="4.9771">
        <ele>152.03</ele>
        <time>2020-09-27T11:01:43Z</time>
      </trkpt>
      <trkpt lat="49.63578" lon="4.9769">
        <ele>152.51</ele>
        <time>2020-09-27T11:02:03Z</time>
      </trkpt>
      <trkpt lat="49.63589" lon="4.97673">
        <ele>150.58</ele>
        <time>2020-09-27T11:02:19Z</time>
      </trkpt>
      <trkpt lat="49.63595" lon="4.97654">
        <ele>152.99</ele>
        <time>2020-09-27T11:02:31Z</time>
      </trkpt>
      <trkpt lat="49.63586" lon="4.9764">
        <ele>155.87</ele>
        <time>2020-09-27T11:02:45Z</time>
      </trkpt>
      <trkpt lat="49.63574" lon="4.97621">
        <ele>156.83</ele>
        <time>2020-09-27T11:03:02Z</time>
      </trkpt>
      <trkpt lat="49.63557" lon="4.97595">
        <ele>158.75</ele>
        <time>2020-09-27T11:03:22Z</time>
      </trkpt>
      <trkpt lat="49.63547" lon="4.97579">
        <ele>159.24</ele>
        <time>2020-09-27T11:03:38Z</time>
      </trkpt>
      <trkpt lat="49.63531" lon="4.97551">
        <ele>160.68</ele>
        <time>2020-09-27T11:03:59Z</time>
      </trkpt>
      <trkpt lat="49.63515" lon="4.97525">
        <ele>161.64</ele>
        <time>2020-09-27T11:04:19Z</time>
      </trkpt>
      <trkpt lat="49.63503" lon="4.97505">
        <ele>163.56</ele>
        <time>2020-09-27T11:04:38Z</time>
      </trkpt>
      <trkpt lat="49.63492" lon="4.97485">
        <ele>165</ele>
        <time>2020-09-27T11:04:54Z</time>
      </trkpt>
      <trkpt lat="49.63484" lon="4.97467">
        <ele>164.52</ele>
        <time>2020-09-27T11:05:13Z</time>
      </trkpt>
      <trkpt lat="49.63477" lon="4.97457">
        <ele>165</ele>
        <time>2020-09-27T11:05:33Z</time>
      </trkpt>
      <trkpt lat="49.63462" lon="4.97433">
        <ele>162.6</ele>
        <time>2020-09-27T11:05:50Z</time>
      </trkpt>
      <trkpt lat="49.63448" lon="4.97408">
        <ele>160.2</ele>
        <time>2020-09-27T11:06:08Z</time>
      </trkpt>
      <trkpt lat="49.63436" lon="4.97381">
        <ele>158.75</ele>
        <time>2020-09-27T11:06:29Z</time>
      </trkpt>
      <trkpt lat="49.63425" lon="4.97362">
        <ele>157.31</ele>
        <time>2020-09-27T11:06:47Z</time>
      </trkpt>
      <trkpt lat="49.63412" lon="4.97329">
        <ele>152.03</ele>
        <time>2020-09-27T11:07:07Z</time>
      </trkpt>
      <trkpt lat="49.63394" lon="4.97301">
        <ele>151.06</ele>
        <time>2020-09-27T11:07:26Z</time>
      </trkpt>
      <trkpt lat="49.63378" lon="4.97273">
        <ele>146.74</ele>
        <time>2020-09-27T11:07:46Z</time>
      </trkpt>
      <trkpt lat="49.63367" lon="4.97245">
        <ele>143.37</ele>
        <time>2020-09-27T11:08:06Z</time>
      </trkpt>
      <trkpt lat="49.63357" lon="4.97219">
        <ele>142.41</ele>
        <time>2020-09-27T11:08:25Z</time>
      </trkpt>
      <trkpt lat="49.63342" lon="4.97189">
        <ele>148.18</ele>
        <time>2020-09-27T11:08:43Z</time>
      </trkpt>
      <trkpt lat="49.63337" lon="4.97175">
        <ele>152.51</ele>
        <time>2020-09-27T11:09:01Z</time>
      </trkpt>
      <trkpt lat="49.63331" lon="4.97156">
        <ele>157.31</ele>
        <time>2020-09-27T11:09:21Z</time>
      </trkpt>
      <trkpt lat="49.63326" lon="4.97136">
        <ele>160.68</ele>
        <time>2020-09-27T11:09:43Z</time>
      </trkpt>
      <trkpt lat="49.63322" lon="4.97119">
        <ele>164.04</ele>
        <time>2020-09-27T11:10:02Z</time>
      </trkpt>
      <trkpt lat="49.63319" lon="4.97103">
        <ele>166.93</ele>
        <time>2020-09-27T11:10:19Z</time>
      </trkpt>
      <trkpt lat="49.63314" lon="4.97084">
        <ele>167.89</ele>
        <time>2020-09-27T11:10:42Z</time>
      </trkpt>
      <trkpt lat="49.63311" lon="4.97069">
        <ele>168.85</ele>
        <time>2020-09-27T11:11:02Z</time>
      </trkpt>
      <trkpt lat="49.63308" lon="4.97054">
        <ele>170.29</ele>
        <time>2020-09-27T11:11:23Z</time>
      </trkpt>
      <trkpt lat="49.63306" lon="4.97039">
        <ele>172.21</ele>
        <time>2020-09-27T11:11:41Z</time>
      </trkpt>
      <trkpt lat="49.63304" lon="4.97025">
        <ele>171.73</ele>
        <time>2020-09-27T11:12:00Z</time>
      </trkpt>
      <trkpt lat="49.633" lon="4.97011">
        <ele>170.77</ele>
        <time>2020-09-27T11:12:18Z</time>
      </trkpt>
      <trkpt lat="49.63294" lon="4.96992">
        <ele>171.25</ele>
        <time>2020-09-27T11:12:37Z</time>
      </trkpt>
      <trkpt lat="49.63285" lon="4.9697">
        <ele>172.21</ele>
        <time>2020-09-27T11:12:56Z</time>
      </trkpt>
      <trkpt lat="49.63278" lon="4.96949">
        <ele>172.69</ele>
        <time>2020-09-27T11:13:12Z</time>
      </trkpt>
      <trkpt lat="49.6327" lon="4.96928">
        <ele>172.21</ele>
        <time>2020-09-27T11:13:33Z</time>
      </trkpt>
      <trkpt lat="49.63263" lon="4.96912">
        <ele>170.77</ele>
        <time>2020-09-27T11:13:53Z</time>
      </trkpt>
      <trkpt lat="49.63256" lon="4.96901">
        <ele>168.85</ele>
        <time>2020-09-27T11:14:13Z</time>
      </trkpt>
      <trkpt lat="49.63239" lon="4.96882">
        <ele>166.93</ele>
        <time>2020-09-27T11:14:32Z</time>
      </trkpt>
      <trkpt lat="49.63196" lon="4.96831">
        <ele>165.96</ele>
        <time>2020-09-27T11:14:50Z</time>
      </trkpt>
      <trkpt lat="49.63155" lon="4.96766">
        <ele>163.56</ele>
        <time>2020-09-27T11:15:09Z</time>
      </trkpt>
      <trkpt lat="49.63128" lon="4.96728">
        <ele>158.27</ele>
        <time>2020-09-27T11:15:23Z</time>
      </trkpt>
      <trkpt lat="49.63094" lon="4.96693">
        <ele>149.14</ele>
        <time>2020-09-27T11:15:46Z</time>
      </trkpt>
      <trkpt lat="49.63075" lon="4.96677">
        <ele>148.18</ele>
        <time>2020-09-27T11:16:06Z</time>
      </trkpt>
      <trkpt lat="49.6306" lon="4.96658">
        <ele>151.54</ele>
        <time>2020-09-27T11:16:27Z</time>
      </trkpt>
      <trkpt lat="49.63051" lon="4.96651">
        <ele>152.03</ele>
        <time>2020-09-27T11:16:47Z</time>
      </trkpt>
      <trkpt lat="49.63036" lon="4.9664">
        <ele>158.75</ele>
        <time>2020-09-27T11:17:09Z</time>
      </trkpt>
      <trkpt lat="49.63022" lon="4.96623">
        <ele>164.52</ele>
        <time>2020-09-27T11:17:27Z</time>
      </trkpt>
      <trkpt lat="49.63006" lon="4.966">
        <ele>166.93</ele>
        <time>2020-09-27T11:17:49Z</time>
      </trkpt>
      <trkpt lat="49.62993" lon="4.96587">
        <ele>168.37</ele>
        <time>2020-09-27T11:18:09Z</time>
      </trkpt>
      <trkpt lat="49.62955" lon="4.96554">
        <ele>160.2</ele>
        <time>2020-09-27T11:18:30Z</time>
      </trkpt>
      <trkpt lat="49.62927" lon="4.96527">
        <ele>160.68</ele>
        <time>2020-09-27T11:18:47Z</time>
      </trkpt>
      <trkpt lat="49.62905" lon="4.96505">
        <ele>158.27</ele>
        <time>2020-09-27T11:19:05Z</time>
      </trkpt>
      <trkpt lat="49.62887" lon="4.96502">
        <ele>164.52</ele>
        <time>2020-09-27T11:19:23Z</time>
      </trkpt>
      <trkpt lat="49.62875" lon="4.96499">
        <ele>166.45</ele>
        <time>2020-09-27T11:19:43Z</time>
      </trkpt>
      <trkpt lat="49.62862" lon="4.96491">
        <ele>165</ele>
        <time>2020-09-27T11:20:06Z</time>
      </trkpt>
      <trkpt lat="49.62839" lon="4.96481">
        <ele>163.08</ele>
        <time>2020-09-27T11:20:26Z</time>
      </trkpt>
      <trkpt lat="49.62824" lon="4.96473">
        <ele>163.08</ele>
        <time>2020-09-27T11:20:45Z</time>
      </trkpt>
      <trkpt lat="49.6281" lon="4.96464">
        <ele>164.04</ele>
        <time>2020-09-27T11:21:05Z</time>
      </trkpt>
      <trkpt lat="49.62783" lon="4.96446">
        <ele>156.83</ele>
        <time>2020-09-27T11:21:26Z</time>
      </trkpt>
      <trkpt lat="49.62748" lon="4.96438">
        <ele>142.89</ele>
        <time>2020-09-27T11:21:45Z</time>
      </trkpt>
      <trkpt lat="49.62711" lon="4.96413">
        <ele>145.3</ele>
        <time>2020-09-27T11:22:08Z</time>
      </trkpt>
      <trkpt lat="49.62685" lon="4.96395">
        <ele>148.66</ele>
        <time>2020-09-27T11:22:29Z</time>
      </trkpt>
      <trkpt lat="49.62662" lon="4.9638">
        <ele>150.1</ele>
        <time>2020-09-27T11:22:49Z</time>
      </trkpt>
      <trkpt lat="49.62637" lon="4.96366">
        <ele>153.47</ele>
        <time>2020-09-27T11:23:11Z</time>
      </trkpt>
      <trkpt lat="49.62612" lon="4.96349">
        <ele>154.91</ele>
        <time>2020-09-27T11:23:34Z</time>
      </trkpt>
      <trkpt lat="49.62591" lon="4.96334">
        <ele>151.06</ele>
        <time>2020-09-27T11:23:53Z</time>
      </trkpt>
      <trkpt lat="49.62569" lon="4.96321">
        <ele>152.99</ele>
        <time>2020-09-27T11:24:14Z</time>
      </trkpt>
      <trkpt lat="49.62546" lon="4.96308">
        <ele>154.91</ele>
        <time>2020-09-27T11:24:35Z</time>
      </trkpt>
      <trkpt lat="49.62521" lon="4.96297">
        <ele>157.31</ele>
        <time>2020-09-27T11:24:59Z</time>
      </trkpt>
      <trkpt lat="49.62503" lon="4.96291">
        <ele>155.39</ele>
        <time>2020-09-27T11:25:17Z</time>
      </trkpt>
      <trkpt lat="49.62484" lon="4.96292">
        <ele>147.22</ele>
        <time>2020-09-27T11:25:36Z</time>
      </trkpt>
      <trkpt lat="49.62467" lon="4.96286">
        <ele>139.05</ele>
        <time>2020-09-27T11:25:55Z</time>
      </trkpt>
      <trkpt lat="49.62447" lon="4.96267">
        <ele>138.09</ele>
        <time>2020-09-27T11:26:14Z</time>
      </trkpt>
      <trkpt lat="49.62431" lon="4.96248">
        <ele>134.72</ele>
        <time>2020-09-27T11:26:33Z</time>
      </trkpt>
      <trkpt lat="49.62418" lon="4.96238">
        <ele>129.92</ele>
        <time>2020-09-27T11:26:52Z</time>
      </trkpt>
      <trkpt lat="49.62406" lon="4.96237">
        <ele>129.92</ele>
        <time>2020-09-27T11:27:10Z</time>
      </trkpt>
      <trkpt lat="49.62386" lon="4.96232">
        <ele>130.4</ele>
        <time>2020-09-27T11:27:27Z</time>
      </trkpt>
      <trkpt lat="49.62366" lon="4.96228">
        <ele>128.95</ele>
        <time>2020-09-27T11:27:46Z</time>
      </trkpt>
      <trkpt lat="49.62357" lon="4.96229">
        <ele>130.4</ele>
        <time>2020-09-27T11:27:49Z</time>
      </trkpt>
      <trkpt lat="49.62323" lon="4.96218">
        <ele>136.16</ele>
        <time>2020-09-27T11:28:12Z</time>
      </trkpt>
      <trkpt lat="49.62303" lon="4.96211">
        <ele>139.05</ele>
        <time>2020-09-27T11:28:30Z</time>
      </trkpt>
      <trkpt lat="49.62281" lon="4.96203">
        <ele>138.57</ele>
        <time>2020-09-27T11:28:50Z</time>
      </trkpt>
      <trkpt lat="49.62265" lon="4.96205">
        <ele>136.64</ele>
        <time>2020-09-27T11:29:08Z</time>
      </trkpt>
      <trkpt lat="49.62248" lon="4.96199">
        <ele>131.84</ele>
        <time>2020-09-27T11:29:27Z</time>
      </trkpt>
      <trkpt lat="49.6223" lon="4.96197">
        <ele>133.76</ele>
        <time>2020-09-27T11:29:44Z</time>
      </trkpt>
      <trkpt lat="49.62212" lon="4.96192">
        <ele>126.55</ele>
        <time>2020-09-27T11:30:06Z</time>
      </trkpt>
      <trkpt lat="49.62178" lon="4.96178">
        <ele>135.2</ele>
        <time>2020-09-27T11:30:27Z</time>
      </trkpt>
      <trkpt lat="49.62154" lon="4.96169">
        <ele>139.53</ele>
        <time>2020-09-27T11:30:48Z</time>
      </trkpt>
      <trkpt lat="49.62131" lon="4.96164">
        <ele>142.89</ele>
        <time>2020-09-27T11:31:08Z</time>
      </trkpt>
      <trkpt lat="49.6211" lon="4.96159">
        <ele>145.3</ele>
        <time>2020-09-27T11:31:28Z</time>
      </trkpt>
      <trkpt lat="49.62086" lon="4.96145">
        <ele>148.18</ele>
        <time>2020-09-27T11:31:49Z</time>
      </trkpt>
      <trkpt lat="49.62068" lon="4.96143">
        <ele>149.14</ele>
        <time>2020-09-27T11:32:06Z</time>
      </trkpt>
      <trkpt lat="49.62044" lon="4.96142">
        <ele>154.43</ele>
        <time>2020-09-27T11:32:24Z</time>
      </trkpt>
      <trkpt lat="49.62039" lon="4.96141">
        <ele>155.39</ele>
        <time>2020-09-27T11:32:28Z</time>
      </trkpt>
      <trkpt lat="49.62015" lon="4.96135">
        <ele>157.79</ele>
        <time>2020-09-27T11:32:47Z</time>
      </trkpt>
      <trkpt lat="49.61993" lon="4.9613">
        <ele>158.27</ele>
        <time>2020-09-27T11:33:08Z</time>
      </trkpt>
      <trkpt lat="49.61968" lon="4.96121">
        <ele>158.27</ele>
        <time>2020-09-27T11:33:28Z</time>
      </trkpt>
      <trkpt lat="49.61946" lon="4.96118">
        <ele>159.72</ele>
        <time>2020-09-27T11:33:48Z</time>
      </trkpt>
      <trkpt lat="49.6193" lon="4.96112">
        <ele>159.24</ele>
        <time>2020-09-27T11:34:05Z</time>
      </trkpt>
      <trkpt lat="49.61908" lon="4.96109">
        <ele>158.75</ele>
        <time>2020-09-27T11:34:25Z</time>
      </trkpt>
      <trkpt lat="49.61892" lon="4.96107">
        <ele>154.43</ele>
        <time>2020-09-27T11:34:44Z</time>
      </trkpt>
      <trkpt lat="49.61865" lon="4.96103">
        <ele>154.43</ele>
        <time>2020-09-27T11:35:04Z</time>
      </trkpt>
      <trkpt lat="49.61843" lon="4.96091">
        <ele>155.87</ele>
        <time>2020-09-27T11:35:24Z</time>
      </trkpt>
      <trkpt lat="49.61823" lon="4.96083">
        <ele>152.99</ele>
        <time>2020-09-27T11:35:46Z</time>
      </trkpt>
      <trkpt lat="49.61795" lon="4.96072">
        <ele>150.1</ele>
        <time>2020-09-27T11:36:15Z</time>
      </trkpt>
      <trkpt lat="49.61772" lon="4.96065">
        <ele>148.66</ele>
        <time>2020-09-27T11:36:37Z</time>
      </trkpt>
      <trkpt lat="49.61749" lon="4.96056">
        <ele>147.22</ele>
        <time>2020-09-27T11:37:01Z</time>
      </trkpt>
      <trkpt lat="49.6173" lon="4.96044">
        <ele>141.45</ele>
        <time>2020-09-27T11:37:23Z</time>
      </trkpt>
      <trkpt lat="49.61702" lon="4.96045">
        <ele>140.49</ele>
        <time>2020-09-27T11:37:47Z</time>
      </trkpt>
      <trkpt lat="49.61675" lon="4.96035">
        <ele>138.57</ele>
        <time>2020-09-27T11:38:10Z</time>
      </trkpt>
      <trkpt lat="49.61658" lon="4.96037">
        <ele>142.41</ele>
        <time>2020-09-27T11:38:29Z</time>
      </trkpt>
      <trkpt lat="49.61647" lon="4.96045">
        <ele>150.58</ele>
        <time>2020-09-27T11:38:51Z</time>
      </trkpt>
      <trkpt lat="49.61638" lon="4.96045">
        <ele>155.39</ele>
        <time>2020-09-27T11:39:10Z</time>
      </trkpt>
      <trkpt lat="49.61629" lon="4.96039">
        <ele>157.31</ele>
        <time>2020-09-27T11:39:33Z</time>
      </trkpt>
      <trkpt lat="49.61612" lon="4.96036">
        <ele>156.83</ele>
        <time>2020-09-27T11:39:56Z</time>
      </trkpt>
      <trkpt lat="49.61588" lon="4.96026">
        <ele>161.16</ele>
        <time>2020-09-27T11:40:19Z</time>
      </trkpt>
      <trkpt lat="49.61551" lon="4.96003">
        <ele>160.2</ele>
        <time>2020-09-27T11:40:39Z</time>
      </trkpt>
      <trkpt lat="49.61515" lon="4.95977">
        <ele>157.31</ele>
        <time>2020-09-27T11:41:01Z</time>
      </trkpt>
      <trkpt lat="49.6149" lon="4.95961">
        <ele>162.12</ele>
        <time>2020-09-27T11:41:21Z</time>
      </trkpt>
      <trkpt lat="49.61475" lon="4.95945">
        <ele>163.56</ele>
        <time>2020-09-27T11:41:42Z</time>
      </trkpt>
      <trkpt lat="49.61469" lon="4.95939">
        <ele>163.08</ele>
        <time>2020-09-27T11:41:46Z</time>
      </trkpt>
      <trkpt lat="49.61434" lon="4.95899">
        <ele>164.04</ele>
        <time>2020-09-27T11:42:07Z</time>
      </trkpt>
      <trkpt lat="49.61417" lon="4.95873">
        <ele>164.04</ele>
        <time>2020-09-27T11:42:25Z</time>
      </trkpt>
      <trkpt lat="49.61398" lon="4.95845">
        <ele>166.45</ele>
        <time>2020-09-27T11:42:46Z</time>
      </trkpt>
      <trkpt lat="49.61381" lon="4.9582">
        <ele>166.45</ele>
        <time>2020-09-27T11:43:06Z</time>
      </trkpt>
      <trkpt lat="49.61368" lon="4.95801">
        <ele>169.33</ele>
        <time>2020-09-27T11:43:24Z</time>
      </trkpt>
      <trkpt lat="49.61353" lon="4.95784">
        <ele>175.1</ele>
        <time>2020-09-27T11:43:44Z</time>
      </trkpt>
      <trkpt lat="49.61333" lon="4.95758">
        <ele>182.79</ele>
        <time>2020-09-27T11:44:07Z</time>
      </trkpt>
      <trkpt lat="49.61317" lon="4.9574">
        <ele>185.19</ele>
        <time>2020-09-27T11:44:30Z</time>
      </trkpt>
      <trkpt lat="49.61292" lon="4.95716">
        <ele>190</ele>
        <time>2020-09-27T11:44:51Z</time>
      </trkpt>
      <trkpt lat="49.61271" lon="4.957">
        <ele>189.04</ele>
        <time>2020-09-27T11:45:13Z</time>
      </trkpt>
      <trkpt lat="49.61256" lon="4.9569">
        <ele>189.52</ele>
        <time>2020-09-27T11:45:32Z</time>
      </trkpt>
      <trkpt lat="49.61235" lon="4.95674">
        <ele>189.52</ele>
        <time>2020-09-27T11:45:53Z</time>
      </trkpt>
      <trkpt lat="49.61225" lon="4.95672">
        <ele>186.63</ele>
        <time>2020-09-27T11:46:13Z</time>
      </trkpt>
      <trkpt lat="49.61208" lon="4.95661">
        <ele>182.79</ele>
        <time>2020-09-27T11:46:36Z</time>
      </trkpt>
      <trkpt lat="49.61181" lon="4.95645">
        <ele>179.42</ele>
        <time>2020-09-27T11:46:57Z</time>
      </trkpt>
      <trkpt lat="49.61144" lon="4.95622">
        <ele>177.02</ele>
        <time>2020-09-27T11:47:21Z</time>
      </trkpt>
      <trkpt lat="49.61118" lon="4.95607">
        <ele>176.06</ele>
        <time>2020-09-27T11:47:43Z</time>
      </trkpt>
      <trkpt lat="49.61094" lon="4.95592">
        <ele>174.14</ele>
        <time>2020-09-27T11:48:06Z</time>
      </trkpt>
      <trkpt lat="49.61075" lon="4.95578">
        <ele>172.21</ele>
        <time>2020-09-27T11:48:27Z</time>
      </trkpt>
      <trkpt lat="49.61053" lon="4.95565">
        <ele>171.25</ele>
        <time>2020-09-27T11:48:49Z</time>
      </trkpt>
      <trkpt lat="49.61036" lon="4.95556">
        <ele>170.77</ele>
        <time>2020-09-27T11:49:05Z</time>
      </trkpt>
      <trkpt lat="49.61017" lon="4.95542">
        <ele>169.33</ele>
        <time>2020-09-27T11:49:23Z</time>
      </trkpt>
      <trkpt lat="49.60995" lon="4.95528">
        <ele>166.45</ele>
        <time>2020-09-27T11:49:45Z</time>
      </trkpt>
      <trkpt lat="49.60982" lon="4.95521">
        <ele>165.96</ele>
        <time>2020-09-27T11:50:03Z</time>
      </trkpt>
      <trkpt lat="49.60963" lon="4.95508">
        <ele>164.52</ele>
        <time>2020-09-27T11:50:22Z</time>
      </trkpt>
      <trkpt lat="49.60941" lon="4.95495">
        <ele>164.04</ele>
        <time>2020-09-27T11:50:42Z</time>
      </trkpt>
      <trkpt lat="49.60917" lon="4.9548">
        <ele>163.08</ele>
        <time>2020-09-27T11:51:03Z</time>
      </trkpt>
      <trkpt lat="49.6089" lon="4.95466">
        <ele>164.52</ele>
        <time>2020-09-27T11:51:25Z</time>
      </trkpt>
      <trkpt lat="49.60865" lon="4.95459">
        <ele>165</ele>
        <time>2020-09-27T11:51:48Z</time>
      </trkpt>
      <trkpt lat="49.60856" lon="4.95451">
        <ele>165.96</ele>
        <time>2020-09-27T11:51:58Z</time>
      </trkpt>
      <trkpt lat="49.6084" lon="4.95432">
        <ele>169.81</ele>
        <time>2020-09-27T11:52:17Z</time>
      </trkpt>
      <trkpt lat="49.60823" lon="4.95425">
        <ele>170.29</ele>
        <time>2020-09-27T11:52:35Z</time>
      </trkpt>
      <trkpt lat="49.60805" lon="4.95419">
        <ele>168.85</ele>
        <time>2020-09-27T11:52:54Z</time>
      </trkpt>
      <trkpt lat="49.60789" lon="4.95415">
        <ele>166.45</ele>
        <time>2020-09-27T11:53:11Z</time>
      </trkpt>
      <trkpt lat="49.6077" lon="4.95411">
        <ele>164.04</ele>
        <time>2020-09-27T11:53:30Z</time>
      </trkpt>
      <trkpt lat="49.60746" lon="4.95416">
        <ele>163.56</ele>
        <time>2020-09-27T11:53:53Z</time>
      </trkpt>
      <trkpt lat="49.60719" lon="4.95421">
        <ele>164.04</ele>
        <time>2020-09-27T11:54:14Z</time>
      </trkpt>
      <trkpt lat="49.60712" lon="4.95423">
        <ele>164.52</ele>
        <time>2020-09-27T11:54:20Z</time>
      </trkpt>
      <trkpt lat="49.60689" lon="4.95429">
        <ele>163.08</ele>
        <time>2020-09-27T11:54:41Z</time>
      </trkpt>
      <trkpt lat="49.60664" lon="4.95437">
        <ele>163.56</ele>
        <time>2020-09-27T11:55:03Z</time>
      </trkpt>
      <trkpt lat="49.6064" lon="4.95442">
        <ele>164.52</ele>
        <time>2020-09-27T11:55:24Z</time>
      </trkpt>
      <trkpt lat="49.60619" lon="4.95447">
        <ele>165.48</ele>
        <time>2020-09-27T11:55:44Z</time>
      </trkpt>
      <trkpt lat="49.60596" lon="4.95451">
        <ele>167.89</ele>
        <time>2020-09-27T11:56:06Z</time>
      </trkpt>
      <trkpt lat="49.60573" lon="4.95453">
        <ele>170.29</ele>
        <time>2020-09-27T11:56:27Z</time>
      </trkpt>
      <trkpt lat="49.60554" lon="4.95458">
        <ele>172.21</ele>
        <time>2020-09-27T11:56:46Z</time>
      </trkpt>
      <trkpt lat="49.60543" lon="4.95449">
        <ele>172.21</ele>
        <time>2020-09-27T11:57:00Z</time>
      </trkpt>
      <trkpt lat="49.60535" lon="4.9542">
        <ele>172.69</ele>
        <time>2020-09-27T11:57:20Z</time>
      </trkpt>
      <trkpt lat="49.60525" lon="4.95394">
        <ele>176.06</ele>
        <time>2020-09-27T11:57:38Z</time>
      </trkpt>
      <trkpt lat="49.60514" lon="4.95365">
        <ele>183.75</ele>
        <time>2020-09-27T11:57:57Z</time>
      </trkpt>
      <trkpt lat="49.60501" lon="4.95339">
        <ele>190.96</ele>
        <time>2020-09-27T11:58:16Z</time>
      </trkpt>
      <trkpt lat="49.60486" lon="4.9531">
        <ele>198.17</ele>
        <time>2020-09-27T11:58:39Z</time>
      </trkpt>
      <trkpt lat="49.6048" lon="4.95297">
        <ele>200.09</ele>
        <time>2020-09-27T11:58:49Z</time>
      </trkpt>
      <trkpt lat="49.60464" lon="4.95275">
        <ele>204.9</ele>
        <time>2020-09-27T11:59:08Z</time>
      </trkpt>
      <trkpt lat="49.60448" lon="4.95255">
        <ele>209.22</ele>
        <time>2020-09-27T11:59:27Z</time>
      </trkpt>
      <trkpt lat="49.60434" lon="4.95237">
        <ele>213.07</ele>
        <time>2020-09-27T11:59:45Z</time>
      </trkpt>
      <trkpt lat="49.60424" lon="4.95222">
        <ele>214.99</ele>
        <time>2020-09-27T12:00:02Z</time>
      </trkpt>
      <trkpt lat="49.60423" lon="4.95221">
        <ele>214.51</ele>
        <time>2020-09-27T12:00:30Z</time>
      </trkpt>
      <trkpt lat="49.60409" lon="4.952">
        <ele>216.91</ele>
        <time>2020-09-27T12:00:48Z</time>
      </trkpt>
      <trkpt lat="49.60398" lon="4.95179">
        <ele>220.76</ele>
        <time>2020-09-27T12:01:06Z</time>
      </trkpt>
      <trkpt lat="49.60392" lon="4.95157">
        <ele>223.16</ele>
        <time>2020-09-27T12:01:23Z</time>
      </trkpt>
      <trkpt lat="49.60387" lon="4.95135">
        <ele>225.09</ele>
        <time>2020-09-27T12:01:39Z</time>
      </trkpt>
      <trkpt lat="49.60384" lon="4.95121">
        <ele>226.05</ele>
        <time>2020-09-27T12:01:48Z</time>
      </trkpt>
      <trkpt lat="49.6038" lon="4.95093">
        <ele>229.41</ele>
        <time>2020-09-27T12:02:07Z</time>
      </trkpt>
      <trkpt lat="49.60379" lon="4.95088">
        <ele>229.89</ele>
        <time>2020-09-27T12:02:11Z</time>
      </trkpt>
      <trkpt lat="49.60375" lon="4.95062">
        <ele>230.85</ele>
        <time>2020-09-27T12:02:28Z</time>
      </trkpt>
      <trkpt lat="49.60371" lon="4.95035">
        <ele>233.26</ele>
        <time>2020-09-27T12:02:46Z</time>
      </trkpt>
      <trkpt lat="49.60366" lon="4.95004">
        <ele>236.14</ele>
        <time>2020-09-27T12:03:06Z</time>
      </trkpt>
      <trkpt lat="49.60361" lon="4.94974">
        <ele>238.54</ele>
        <time>2020-09-27T12:03:27Z</time>
      </trkpt>
      <trkpt lat="49.60357" lon="4.94949">
        <ele>240.47</ele>
        <time>2020-09-27T12:03:44Z</time>
      </trkpt>
      <trkpt lat="49.60352" lon="4.9492">
        <ele>241.43</ele>
        <time>2020-09-27T12:04:02Z</time>
      </trkpt>
      <trkpt lat="49.60351" lon="4.94906">
        <ele>242.87</ele>
        <time>2020-09-27T12:04:18Z</time>
      </trkpt>
      <trkpt lat="49.6035" lon="4.94905">
        <ele>244.79</ele>
        <time>2020-09-27T12:04:42Z</time>
      </trkpt>
      <trkpt lat="49.60348" lon="4.94886">
        <ele>245.75</ele>
        <time>2020-09-27T12:04:59Z</time>
      </trkpt>
      <trkpt lat="49.60341" lon="4.94858">
        <ele>246.23</ele>
        <time>2020-09-27T12:05:17Z</time>
      </trkpt>
      <trkpt lat="49.60334" lon="4.94829">
        <ele>245.27</ele>
        <time>2020-09-27T12:05:36Z</time>
      </trkpt>
      <trkpt lat="49.60327" lon="4.94804">
        <ele>246.72</ele>
        <time>2020-09-27T12:05:53Z</time>
      </trkpt>
      <trkpt lat="49.60319" lon="4.94778">
        <ele>248.64</ele>
        <time>2020-09-27T12:06:12Z</time>
      </trkpt>
      <trkpt lat="49.60312" lon="4.94754">
        <ele>249.12</ele>
        <time>2020-09-27T12:06:29Z</time>
      </trkpt>
      <trkpt lat="49.60309" lon="4.9474">
        <ele>249.6</ele>
        <time>2020-09-27T12:06:39Z</time>
      </trkpt>
      <trkpt lat="49.60305" lon="4.94711">
        <ele>252</ele>
        <time>2020-09-27T12:06:57Z</time>
      </trkpt>
      <trkpt lat="49.603" lon="4.94685">
        <ele>255.37</ele>
        <time>2020-09-27T12:07:14Z</time>
      </trkpt>
      <trkpt lat="49.60295" lon="4.94657">
        <ele>257.77</ele>
        <time>2020-09-27T12:07:31Z</time>
      </trkpt>
      <trkpt lat="49.60291" lon="4.94642">
        <ele>259.21</ele>
        <time>2020-09-27T12:07:40Z</time>
      </trkpt>
      <trkpt lat="49.60286" lon="4.94624">
        <ele>261.62</ele>
        <time>2020-09-27T12:07:52Z</time>
      </trkpt>
      <trkpt lat="49.60277" lon="4.94587">
        <ele>266.9</ele>
        <time>2020-09-27T12:08:14Z</time>
      </trkpt>
      <trkpt lat="49.60272" lon="4.94571">
        <ele>268.83</ele>
        <time>2020-09-27T12:08:25Z</time>
      </trkpt>
      <trkpt lat="49.60266" lon="4.94545">
        <ele>270.27</ele>
        <time>2020-09-27T12:08:42Z</time>
      </trkpt>
      <trkpt lat="49.60263" lon="4.94515">
        <ele>272.19</ele>
        <time>2020-09-27T12:09:00Z</time>
      </trkpt>
      <trkpt lat="49.60263" lon="4.94509">
        <ele>272.67</ele>
        <time>2020-09-27T12:09:03Z</time>
      </trkpt>
      <trkpt lat="49.60258" lon="4.94505">
        <ele>272.67</ele>
        <time>2020-09-27T12:09:16Z</time>
      </trkpt>
      <trkpt lat="49.60249" lon="4.94512">
        <ele>272.19</ele>
        <time>2020-09-27T12:09:26Z</time>
      </trkpt>
      <trkpt lat="49.60237" lon="4.94522">
        <ele>270.75</ele>
        <time>2020-09-27T12:09:43Z</time>
      </trkpt>
      <trkpt lat="49.60219" lon="4.94541">
        <ele>270.27</ele>
        <time>2020-09-27T12:10:05Z</time>
      </trkpt>
      <trkpt lat="49.60216" lon="4.94548">
        <ele>269.79</ele>
        <time>2020-09-27T12:10:22Z</time>
      </trkpt>
      <trkpt lat="49.60216" lon="4.94548">
        <ele>269.79</ele>
        <time>2020-09-27T12:10:25Z</time>
      </trkpt>
      <trkpt lat="49.60211" lon="4.94543">
        <ele>269.79</ele>
        <time>2020-09-27T12:10:32Z</time>
      </trkpt>
      <trkpt lat="49.60192" lon="4.94547">
        <ele>271.23</ele>
        <time>2020-09-27T12:10:51Z</time>
      </trkpt>
      <trkpt lat="49.60185" lon="4.94543">
        <ele>272.19</ele>
        <time>2020-09-27T12:10:58Z</time>
      </trkpt>
      <trkpt lat="49.60166" lon="4.9452">
        <ele>275.07</ele>
        <time>2020-09-27T12:11:20Z</time>
      </trkpt>
      <trkpt lat="49.60147" lon="4.94509">
        <ele>276.52</ele>
        <time>2020-09-27T12:11:39Z</time>
      </trkpt>
      <trkpt lat="49.60127" lon="4.94501">
        <ele>277.96</ele>
        <time>2020-09-27T12:11:57Z</time>
      </trkpt>
      <trkpt lat="49.60107" lon="4.94498">
        <ele>278.92</ele>
        <time>2020-09-27T12:12:16Z</time>
      </trkpt>
      <trkpt lat="49.60086" lon="4.94495">
        <ele>279.88</ele>
        <time>2020-09-27T12:12:36Z</time>
      </trkpt>
      <trkpt lat="49.60068" lon="4.94492">
        <ele>281.8</ele>
        <time>2020-09-27T12:12:53Z</time>
      </trkpt>
      <trkpt lat="49.60051" lon="4.94487">
        <ele>283.25</ele>
        <time>2020-09-27T12:13:09Z</time>
      </trkpt>
      <trkpt lat="49.60048" lon="4.94488">
        <ele>283.25</ele>
        <time>2020-09-27T12:13:11Z</time>
      </trkpt>
      <trkpt lat="49.60028" lon="4.94484">
        <ele>285.17</ele>
        <time>2020-09-27T12:13:31Z</time>
      </trkpt>
      <trkpt lat="49.6001" lon="4.9448">
        <ele>287.09</ele>
        <time>2020-09-27T12:13:49Z</time>
      </trkpt>
      <trkpt lat="49.60007" lon="4.94479">
        <ele>287.09</ele>
        <time>2020-09-27T12:13:52Z</time>
      </trkpt>
      <trkpt lat="49.59985" lon="4.94476">
        <ele>289.01</ele>
        <time>2020-09-27T12:14:12Z</time>
      </trkpt>
      <trkpt lat="49.59964" lon="4.94475">
        <ele>289.49</ele>
        <time>2020-09-27T12:14:33Z</time>
      </trkpt>
      <trkpt lat="49.59943" lon="4.94474">
        <ele>290.46</ele>
        <time>2020-09-27T12:14:54Z</time>
      </trkpt>
      <trkpt lat="49.59916" lon="4.94473">
        <ele>290.46</ele>
        <time>2020-09-27T12:15:18Z</time>
      </trkpt>
      <trkpt lat="49.59891" lon="4.94471">
        <ele>290.94</ele>
        <time>2020-09-27T12:15:42Z</time>
      </trkpt>
      <trkpt lat="49.59864" lon="4.94468">
        <ele>289.97</ele>
        <time>2020-09-27T12:16:07Z</time>
      </trkpt>
      <trkpt lat="49.5985" lon="4.94467">
        <ele>289.97</ele>
        <time>2020-09-27T12:16:20Z</time>
      </trkpt>
      <trkpt lat="49.59829" lon="4.94463">
        <ele>289.01</ele>
        <time>2020-09-27T12:16:39Z</time>
      </trkpt>
      <trkpt lat="49.59828" lon="4.94463">
        <ele>289.01</ele>
        <time>2020-09-27T12:16:40Z</time>
      </trkpt>
      <trkpt lat="49.5982" lon="4.94462">
        <ele>289.01</ele>
        <time>2020-09-27T12:16:47Z</time>
      </trkpt>
      <trkpt lat="49.59789" lon="4.94461">
        <ele>288.53</ele>
        <time>2020-09-27T12:17:15Z</time>
      </trkpt>
      <trkpt lat="49.59766" lon="4.94462">
        <ele>289.01</ele>
        <time>2020-09-27T12:17:36Z</time>
      </trkpt>
      <trkpt lat="49.59745" lon="4.94461">
        <ele>289.49</ele>
        <time>2020-09-27T12:17:57Z</time>
      </trkpt>
      <trkpt lat="49.59723" lon="4.94458">
        <ele>289.49</ele>
        <time>2020-09-27T12:18:17Z</time>
      </trkpt>
      <trkpt lat="49.59701" lon="4.94457">
        <ele>288.05</ele>
        <time>2020-09-27T12:18:38Z</time>
      </trkpt>
      <trkpt lat="49.59678" lon="4.94454">
        <ele>287.09</ele>
        <time>2020-09-27T12:19:00Z</time>
      </trkpt>
      <trkpt lat="49.59656" lon="4.94451">
        <ele>286.61</ele>
        <time>2020-09-27T12:19:20Z</time>
      </trkpt>
      <trkpt lat="49.59635" lon="4.94449">
        <ele>285.65</ele>
        <time>2020-09-27T12:19:40Z</time>
      </trkpt>
      <trkpt lat="49.59616" lon="4.94446">
        <ele>284.21</ele>
        <time>2020-09-27T12:19:57Z</time>
      </trkpt>
      <trkpt lat="49.59603" lon="4.94442">
        <ele>282.77</ele>
        <time>2020-09-27T12:20:12Z</time>
      </trkpt>
      <trkpt lat="49.59577" lon="4.94439">
        <ele>281.32</ele>
        <time>2020-09-27T12:20:35Z</time>
      </trkpt>
      <trkpt lat="49.59558" lon="4.94437">
        <ele>279.4</ele>
        <time>2020-09-27T12:20:54Z</time>
      </trkpt>
      <trkpt lat="49.59539" lon="4.94436">
        <ele>277.48</ele>
        <time>2020-09-27T12:21:13Z</time>
      </trkpt>
      <trkpt lat="49.59522" lon="4.94437">
        <ele>275.56</ele>
        <time>2020-09-27T12:21:32Z</time>
      </trkpt>
      <trkpt lat="49.59517" lon="4.94436">
        <ele>275.07</ele>
        <time>2020-09-27T12:21:36Z</time>
      </trkpt>
      <trkpt lat="49.59498" lon="4.94434">
        <ele>272.19</ele>
        <time>2020-09-27T12:21:55Z</time>
      </trkpt>
      <trkpt lat="49.5948" lon="4.94432">
        <ele>270.27</ele>
        <time>2020-09-27T12:22:13Z</time>
      </trkpt>
      <trkpt lat="49.59461" lon="4.94431">
        <ele>266.9</ele>
        <time>2020-09-27T12:22:31Z</time>
      </trkpt>
      <trkpt lat="49.59448" lon="4.9443">
        <ele>262.58</ele>
        <time>2020-09-27T12:23:11Z</time>
      </trkpt>
      <trkpt lat="49.59449" lon="4.94431">
        <ele>261.62</ele>
        <time>2020-09-27T12:23:37Z</time>
      </trkpt>
      <trkpt lat="49.59449" lon="4.9443">
        <ele>261.14</ele>
        <time>2020-09-27T12:24:06Z</time>
      </trkpt>
      <trkpt lat="49.59449" lon="4.9443">
        <ele>261.14</ele>
        <time>2020-09-27T12:24:23Z</time>
      </trkpt>
      <trkpt lat="49.59448" lon="4.9443">
        <ele>261.14</ele>
        <time>2020-09-27T12:24:53Z</time>
      </trkpt>
      <trkpt lat="49.59443" lon="4.94428">
        <ele>260.65</ele>
        <time>2020-09-27T12:25:04Z</time>
      </trkpt>
      <trkpt lat="49.59439" lon="4.94424">
        <ele>260.17</ele>
        <time>2020-09-27T12:25:09Z</time>
      </trkpt>
      <trkpt lat="49.59431" lon="4.9439">
        <ele>260.17</ele>
        <time>2020-09-27T12:25:28Z</time>
      </trkpt>
      <trkpt lat="49.59427" lon="4.94358">
        <ele>263.06</ele>
        <time>2020-09-27T12:25:47Z</time>
      </trkpt>
      <trkpt lat="49.59425" lon="4.94326">
        <ele>265.94</ele>
        <time>2020-09-27T12:26:07Z</time>
      </trkpt>
      <trkpt lat="49.59423" lon="4.94289">
        <ele>267.38</ele>
        <time>2020-09-27T12:26:29Z</time>
      </trkpt>
      <trkpt lat="49.5942" lon="4.94257">
        <ele>264.02</ele>
        <time>2020-09-27T12:26:49Z</time>
      </trkpt>
      <trkpt lat="49.59415" lon="4.94236">
        <ele>262.1</ele>
        <time>2020-09-27T12:27:04Z</time>
      </trkpt>
      <trkpt lat="49.59403" lon="4.94219">
        <ele>257.77</ele>
        <time>2020-09-27T12:27:20Z</time>
      </trkpt>
      <trkpt lat="49.59381" lon="4.94209">
        <ele>252.48</ele>
        <time>2020-09-27T12:27:42Z</time>
      </trkpt>
      <trkpt lat="49.59361" lon="4.94201">
        <ele>248.16</ele>
        <time>2020-09-27T12:28:02Z</time>
      </trkpt>
      <trkpt lat="49.59342" lon="4.94196">
        <ele>244.31</ele>
        <time>2020-09-27T12:28:22Z</time>
      </trkpt>
      <trkpt lat="49.59327" lon="4.94196">
        <ele>240.47</ele>
        <time>2020-09-27T12:28:38Z</time>
      </trkpt>
      <trkpt lat="49.59308" lon="4.942">
        <ele>237.1</ele>
        <time>2020-09-27T12:28:58Z</time>
      </trkpt>
      <trkpt lat="49.5929" lon="4.94205">
        <ele>233.26</ele>
        <time>2020-09-27T12:29:17Z</time>
      </trkpt>
      <trkpt lat="49.59277" lon="4.94216">
        <ele>230.85</ele>
        <time>2020-09-27T12:29:33Z</time>
      </trkpt>
      <trkpt lat="49.59276" lon="4.94216">
        <ele>230.85</ele>
        <time>2020-09-27T12:29:35Z</time>
      </trkpt>
      <trkpt lat="49.59269" lon="4.94237">
        <ele>229.41</ele>
        <time>2020-09-27T12:29:52Z</time>
      </trkpt>
      <trkpt lat="49.59264" lon="4.94246">
        <ele>226.53</ele>
        <time>2020-09-27T12:30:09Z</time>
      </trkpt>
      <trkpt lat="49.5925" lon="4.94222">
        <ele>224.12</ele>
        <time>2020-09-27T12:30:29Z</time>
      </trkpt>
      <trkpt lat="49.59238" lon="4.94206">
        <ele>222.68</ele>
        <time>2020-09-27T12:30:45Z</time>
      </trkpt>
      <trkpt lat="49.59224" lon="4.94189">
        <ele>219.32</ele>
        <time>2020-09-27T12:31:03Z</time>
      </trkpt>
      <trkpt lat="49.59209" lon="4.94174">
        <ele>214.51</ele>
        <time>2020-09-27T12:31:21Z</time>
      </trkpt>
      <trkpt lat="49.59208" lon="4.94173">
        <ele>214.51</ele>
        <time>2020-09-27T12:31:22Z</time>
      </trkpt>
      <trkpt lat="49.5919" lon="4.94141">
        <ele>213.07</ele>
        <time>2020-09-27T12:31:44Z</time>
      </trkpt>
      <trkpt lat="49.59175" lon="4.94111">
        <ele>217.88</ele>
        <time>2020-09-27T12:32:03Z</time>
      </trkpt>
      <trkpt lat="49.59172" lon="4.94105">
        <ele>226.05</ele>
        <time>2020-09-27T12:32:20Z</time>
      </trkpt>
      <trkpt lat="49.59172" lon="4.94105">
        <ele>225.57</ele>
        <time>2020-09-27T12:32:37Z</time>
      </trkpt>
      <trkpt lat="49.59176" lon="4.94122">
        <ele>224.12</ele>
        <time>2020-09-27T12:32:50Z</time>
      </trkpt>
      <trkpt lat="49.59182" lon="4.94141">
        <ele>223.16</ele>
        <time>2020-09-27T12:33:03Z</time>
      </trkpt>
      <trkpt lat="49.59196" lon="4.94168">
        <ele>225.09</ele>
        <time>2020-09-27T12:33:23Z</time>
      </trkpt>
      <trkpt lat="49.59207" lon="4.94187">
        <ele>223.16</ele>
        <time>2020-09-27T12:33:40Z</time>
      </trkpt>
      <trkpt lat="49.59218" lon="4.94213">
        <ele>221.24</ele>
        <time>2020-09-27T12:33:57Z</time>
      </trkpt>
      <trkpt lat="49.59228" lon="4.94234">
        <ele>220.76</ele>
        <time>2020-09-27T12:34:12Z</time>
      </trkpt>
      <trkpt lat="49.59234" lon="4.9426">
        <ele>220.76</ele>
        <time>2020-09-27T12:34:28Z</time>
      </trkpt>
      <trkpt lat="49.59237" lon="4.94292">
        <ele>219.32</ele>
        <time>2020-09-27T12:34:47Z</time>
      </trkpt>
      <trkpt lat="49.59242" lon="4.94327">
        <ele>216.43</ele>
        <time>2020-09-27T12:35:08Z</time>
      </trkpt>
      <trkpt lat="49.59246" lon="4.94362">
        <ele>214.51</ele>
        <time>2020-09-27T12:35:29Z</time>
      </trkpt>
      <trkpt lat="49.59247" lon="4.94367">
        <ele>214.03</ele>
        <time>2020-09-27T12:35:32Z</time>
      </trkpt>
      <trkpt lat="49.59252" lon="4.94397">
        <ele>211.15</ele>
        <time>2020-09-27T12:35:52Z</time>
      </trkpt>
      <trkpt lat="49.59256" lon="4.94425">
        <ele>209.7</ele>
        <time>2020-09-27T12:36:10Z</time>
      </trkpt>
      <trkpt lat="49.59258" lon="4.94434">
        <ele>209.7</ele>
        <time>2020-09-27T12:36:16Z</time>
      </trkpt>
      <trkpt lat="49.59259" lon="4.94446">
        <ele>208.74</ele>
        <time>2020-09-27T12:36:23Z</time>
      </trkpt>
      <trkpt lat="49.59262" lon="4.94459">
        <ele>208.26</ele>
        <time>2020-09-27T12:36:32Z</time>
      </trkpt>
      <trkpt lat="49.59265" lon="4.94493">
        <ele>207.3</ele>
        <time>2020-09-27T12:36:52Z</time>
      </trkpt>
      <trkpt lat="49.59265" lon="4.94508">
        <ele>205.86</ele>
        <time>2020-09-27T12:37:01Z</time>
      </trkpt>
      <trkpt lat="49.59266" lon="4.94525">
        <ele>205.38</ele>
        <time>2020-09-27T12:37:12Z</time>
      </trkpt>
      <trkpt lat="49.59264" lon="4.94536">
        <ele>205.38</ele>
        <time>2020-09-27T12:37:18Z</time>
      </trkpt>
      <trkpt lat="49.59265" lon="4.94549">
        <ele>205.86</ele>
        <time>2020-09-27T12:37:26Z</time>
      </trkpt>
      <trkpt lat="49.59265" lon="4.94578">
        <ele>205.86</ele>
        <time>2020-09-27T12:37:44Z</time>
      </trkpt>
      <trkpt lat="49.59263" lon="4.94612">
        <ele>206.82</ele>
        <time>2020-09-27T12:38:04Z</time>
      </trkpt>
      <trkpt lat="49.59262" lon="4.94619">
        <ele>206.34</ele>
        <time>2020-09-27T12:38:08Z</time>
      </trkpt>
      <trkpt lat="49.59261" lon="4.94655">
        <ele>205.86</ele>
        <time>2020-09-27T12:38:29Z</time>
      </trkpt>
      <trkpt lat="49.59261" lon="4.9466">
        <ele>205.86</ele>
        <time>2020-09-27T12:38:32Z</time>
      </trkpt>
      <trkpt lat="49.59263" lon="4.94693">
        <ele>208.26</ele>
        <time>2020-09-27T12:38:52Z</time>
      </trkpt>
      <trkpt lat="49.59263" lon="4.94702">
        <ele>209.22</ele>
        <time>2020-09-27T12:38:57Z</time>
      </trkpt>
      <trkpt lat="49.59263" lon="4.94734">
        <ele>209.7</ele>
        <time>2020-09-27T12:39:16Z</time>
      </trkpt>
      <trkpt lat="49.59264" lon="4.94747">
        <ele>209.7</ele>
        <time>2020-09-27T12:39:23Z</time>
      </trkpt>
      <trkpt lat="49.59265" lon="4.94782">
        <ele>209.7</ele>
        <time>2020-09-27T12:39:45Z</time>
      </trkpt>
      <trkpt lat="49.59268" lon="4.94814">
        <ele>209.7</ele>
        <time>2020-09-27T12:40:05Z</time>
      </trkpt>
      <trkpt lat="49.59272" lon="4.94847">
        <ele>208.26</ele>
        <time>2020-09-27T12:40:26Z</time>
      </trkpt>
      <trkpt lat="49.59275" lon="4.94887">
        <ele>210.19</ele>
        <time>2020-09-27T12:40:49Z</time>
      </trkpt>
      <trkpt lat="49.59278" lon="4.9492">
        <ele>209.7</ele>
        <time>2020-09-27T12:41:09Z</time>
      </trkpt>
      <trkpt lat="49.59282" lon="4.94955">
        <ele>207.78</ele>
        <time>2020-09-27T12:41:30Z</time>
      </trkpt>
      <trkpt lat="49.59285" lon="4.94986">
        <ele>206.82</ele>
        <time>2020-09-27T12:41:49Z</time>
      </trkpt>
      <trkpt lat="49.59289" lon="4.95014">
        <ele>206.82</ele>
        <time>2020-09-27T12:42:05Z</time>
      </trkpt>
      <trkpt lat="49.59292" lon="4.95045">
        <ele>206.82</ele>
        <time>2020-09-27T12:42:24Z</time>
      </trkpt>
      <trkpt lat="49.59293" lon="4.95059">
        <ele>206.34</ele>
        <time>2020-09-27T12:42:33Z</time>
      </trkpt>
      <trkpt lat="49.59298" lon="4.95088">
        <ele>205.86</ele>
        <time>2020-09-27T12:42:51Z</time>
      </trkpt>
      <trkpt lat="49.59301" lon="4.95126">
        <ele>207.3</ele>
        <time>2020-09-27T12:43:13Z</time>
      </trkpt>
      <trkpt lat="49.59305" lon="4.9516">
        <ele>207.3</ele>
        <time>2020-09-27T12:43:34Z</time>
      </trkpt>
      <trkpt lat="49.59312" lon="4.9519">
        <ele>206.34</ele>
        <time>2020-09-27T12:43:54Z</time>
      </trkpt>
      <trkpt lat="49.59321" lon="4.95221">
        <ele>206.82</ele>
        <time>2020-09-27T12:44:15Z</time>
      </trkpt>
      <trkpt lat="49.59329" lon="4.95248">
        <ele>204.9</ele>
        <time>2020-09-27T12:44:34Z</time>
      </trkpt>
      <trkpt lat="49.59338" lon="4.95271">
        <ele>203.46</ele>
        <time>2020-09-27T12:44:51Z</time>
      </trkpt>
      <trkpt lat="49.59345" lon="4.95297">
        <ele>202.01</ele>
        <time>2020-09-27T12:45:08Z</time>
      </trkpt>
      <trkpt lat="49.59355" lon="4.95328">
        <ele>202.01</ele>
        <time>2020-09-27T12:45:28Z</time>
      </trkpt>
      <trkpt lat="49.59365" lon="4.9536">
        <ele>203.46</ele>
        <time>2020-09-27T12:45:50Z</time>
      </trkpt>
      <trkpt lat="49.59373" lon="4.95389">
        <ele>201.53</ele>
        <time>2020-09-27T12:46:09Z</time>
      </trkpt>
      <trkpt lat="49.59381" lon="4.95417">
        <ele>200.09</ele>
        <time>2020-09-27T12:46:28Z</time>
      </trkpt>
      <trkpt lat="49.59382" lon="4.95419">
        <ele>200.09</ele>
        <time>2020-09-27T12:46:29Z</time>
      </trkpt>
      <trkpt lat="49.59393" lon="4.95444">
        <ele>201.53</ele>
        <time>2020-09-27T12:46:48Z</time>
      </trkpt>
      <trkpt lat="49.59401" lon="4.95457">
        <ele>201.05</ele>
        <time>2020-09-27T12:46:59Z</time>
      </trkpt>
      <trkpt lat="49.59416" lon="4.95478">
        <ele>200.57</ele>
        <time>2020-09-27T12:47:18Z</time>
      </trkpt>
      <trkpt lat="49.59421" lon="4.95486">
        <ele>200.57</ele>
        <time>2020-09-27T12:47:34Z</time>
      </trkpt>
      <trkpt lat="49.5942" lon="4.95485">
        <ele>200.57</ele>
        <time>2020-09-27T12:47:50Z</time>
      </trkpt>
      <trkpt lat="49.59425" lon="4.95489">
        <ele>202.01</ele>
        <time>2020-09-27T12:48:07Z</time>
      </trkpt>
      <trkpt lat="49.59442" lon="4.95498">
        <ele>202.49</ele>
        <time>2020-09-27T12:48:24Z</time>
      </trkpt>
      <trkpt lat="49.59463" lon="4.95505">
        <ele>202.98</ele>
        <time>2020-09-27T12:48:45Z</time>
      </trkpt>
      <trkpt lat="49.59486" lon="4.95508">
        <ele>201.53</ele>
        <time>2020-09-27T12:49:05Z</time>
      </trkpt>
      <trkpt lat="49.59507" lon="4.95504">
        <ele>201.05</ele>
        <time>2020-09-27T12:49:23Z</time>
      </trkpt>
      <trkpt lat="49.59527" lon="4.95499">
        <ele>199.13</ele>
        <time>2020-09-27T12:49:42Z</time>
      </trkpt>
      <trkpt lat="49.5955" lon="4.95495">
        <ele>200.57</ele>
        <time>2020-09-27T12:50:02Z</time>
      </trkpt>
      <trkpt lat="49.59568" lon="4.95492">
        <ele>198.65</ele>
        <time>2020-09-27T12:50:21Z</time>
      </trkpt>
      <trkpt lat="49.59586" lon="4.95486">
        <ele>194.8</ele>
        <time>2020-09-27T12:50:43Z</time>
      </trkpt>
      <trkpt lat="49.59603" lon="4.95488">
        <ele>194.32</ele>
        <time>2020-09-27T12:51:04Z</time>
      </trkpt>
      <trkpt lat="49.59611" lon="4.95491">
        <ele>194.32</ele>
        <time>2020-09-27T12:51:20Z</time>
      </trkpt>
      <trkpt lat="49.59623" lon="4.95491">
        <ele>194.32</ele>
        <time>2020-09-27T12:51:38Z</time>
      </trkpt>
      <trkpt lat="49.59639" lon="4.95492">
        <ele>194.32</ele>
        <time>2020-09-27T12:51:53Z</time>
      </trkpt>
      <trkpt lat="49.59661" lon="4.95497">
        <ele>195.77</ele>
        <time>2020-09-27T12:52:13Z</time>
      </trkpt>
      <trkpt lat="49.59682" lon="4.95498">
        <ele>195.28</ele>
        <time>2020-09-27T12:52:32Z</time>
      </trkpt>
      <trkpt lat="49.59705" lon="4.95499">
        <ele>193.36</ele>
        <time>2020-09-27T12:52:52Z</time>
      </trkpt>
      <trkpt lat="49.59725" lon="4.95501">
        <ele>190.96</ele>
        <time>2020-09-27T12:53:10Z</time>
      </trkpt>
      <trkpt lat="49.59745" lon="4.95501">
        <ele>189.04</ele>
        <time>2020-09-27T12:53:28Z</time>
      </trkpt>
      <trkpt lat="49.59769" lon="4.95503">
        <ele>188.08</ele>
        <time>2020-09-27T12:53:49Z</time>
      </trkpt>
      <trkpt lat="49.59789" lon="4.95499">
        <ele>186.15</ele>
        <time>2020-09-27T12:54:08Z</time>
      </trkpt>
      <trkpt lat="49.59811" lon="4.95493">
        <ele>184.71</ele>
        <time>2020-09-27T12:54:28Z</time>
      </trkpt>
      <trkpt lat="49.59832" lon="4.95491">
        <ele>184.23</ele>
        <time>2020-09-27T12:54:47Z</time>
      </trkpt>
      <trkpt lat="49.59855" lon="4.95481">
        <ele>186.15</ele>
        <time>2020-09-27T12:55:08Z</time>
      </trkpt>
      <trkpt lat="49.59858" lon="4.95479">
        <ele>186.15</ele>
        <time>2020-09-27T12:55:13Z</time>
      </trkpt>
      <trkpt lat="49.59863" lon="4.95477">
        <ele>185.67</ele>
        <time>2020-09-27T12:55:20Z</time>
      </trkpt>
      <trkpt lat="49.59871" lon="4.95485">
        <ele>187.11</ele>
        <time>2020-09-27T12:55:30Z</time>
      </trkpt>
      <trkpt lat="49.59886" lon="4.95507">
        <ele>187.59</ele>
        <time>2020-09-27T12:55:50Z</time>
      </trkpt>
      <trkpt lat="49.59888" lon="4.9551">
        <ele>189.52</ele>
        <time>2020-09-27T12:56:07Z</time>
      </trkpt>
      <trkpt lat="49.59891" lon="4.95511">
        <ele>190.96</ele>
        <time>2020-09-27T12:56:24Z</time>
      </trkpt>
      <trkpt lat="49.59897" lon="4.95515">
        <ele>192.4</ele>
        <time>2020-09-27T12:56:34Z</time>
      </trkpt>
      <trkpt lat="49.59913" lon="4.95543">
        <ele>194.8</ele>
        <time>2020-09-27T12:56:54Z</time>
      </trkpt>
      <trkpt lat="49.59928" lon="4.95565">
        <ele>195.28</ele>
        <time>2020-09-27T12:57:11Z</time>
      </trkpt>
      <trkpt lat="49.59942" lon="4.95589">
        <ele>193.84</ele>
        <time>2020-09-27T12:57:29Z</time>
      </trkpt>
      <trkpt lat="49.59956" lon="4.95606">
        <ele>193.84</ele>
        <time>2020-09-27T12:57:46Z</time>
      </trkpt>
      <trkpt lat="49.59972" lon="4.95632">
        <ele>194.32</ele>
        <time>2020-09-27T12:58:04Z</time>
      </trkpt>
      <trkpt lat="49.59986" lon="4.95663">
        <ele>196.25</ele>
        <time>2020-09-27T12:58:22Z</time>
      </trkpt>
      <trkpt lat="49.60003" lon="4.95687">
        <ele>196.25</ele>
        <time>2020-09-27T12:58:42Z</time>
      </trkpt>
      <trkpt lat="49.60011" lon="4.95697">
        <ele>197.69</ele>
        <time>2020-09-27T12:58:51Z</time>
      </trkpt>
      <trkpt lat="49.60021" lon="4.95722">
        <ele>199.13</ele>
        <time>2020-09-27T12:59:06Z</time>
      </trkpt>
      <trkpt lat="49.60046" lon="4.95734">
        <ele>201.05</ele>
        <time>2020-09-27T12:59:25Z</time>
      </trkpt>
      <trkpt lat="49.60061" lon="4.95742">
        <ele>198.65</ele>
        <time>2020-09-27T12:59:40Z</time>
      </trkpt>
      <trkpt lat="49.6008" lon="4.95756">
        <ele>195.77</ele>
        <time>2020-09-27T12:59:59Z</time>
      </trkpt>
      <trkpt lat="49.60101" lon="4.95767">
        <ele>195.77</ele>
        <time>2020-09-27T13:00:19Z</time>
      </trkpt>
      <trkpt lat="49.6012" lon="4.95781">
        <ele>195.77</ele>
        <time>2020-09-27T13:00:37Z</time>
      </trkpt>
      <trkpt lat="49.60133" lon="4.95784">
        <ele>195.77</ele>
        <time>2020-09-27T13:00:50Z</time>
      </trkpt>
      <trkpt lat="49.60154" lon="4.95783">
        <ele>196.25</ele>
        <time>2020-09-27T13:01:08Z</time>
      </trkpt>
      <trkpt lat="49.60171" lon="4.95782">
        <ele>194.32</ele>
        <time>2020-09-27T13:01:25Z</time>
      </trkpt>
      <trkpt lat="49.60182" lon="4.95768">
        <ele>192.88</ele>
        <time>2020-09-27T13:01:42Z</time>
      </trkpt>
      <trkpt lat="49.60187" lon="4.95758">
        <ele>191.44</ele>
        <time>2020-09-27T13:01:51Z</time>
      </trkpt>
      <trkpt lat="49.60193" lon="4.95755">
        <ele>190.48</ele>
        <time>2020-09-27T13:01:57Z</time>
      </trkpt>
      <trkpt lat="49.60211" lon="4.95746">
        <ele>189.52</ele>
        <time>2020-09-27T13:02:13Z</time>
      </trkpt>
      <trkpt lat="49.60231" lon="4.95746">
        <ele>190.48</ele>
        <time>2020-09-27T13:02:33Z</time>
      </trkpt>
      <trkpt lat="49.6024" lon="4.95744">
        <ele>190</ele>
        <time>2020-09-27T13:02:41Z</time>
      </trkpt>
      <trkpt lat="49.60241" lon="4.95718">
        <ele>188.56</ele>
        <time>2020-09-27T13:03:00Z</time>
      </trkpt>
      <trkpt lat="49.6024" lon="4.95688">
        <ele>184.71</ele>
        <time>2020-09-27T13:03:19Z</time>
      </trkpt>
      <trkpt lat="49.6024" lon="4.95659">
        <ele>183.75</ele>
        <time>2020-09-27T13:03:35Z</time>
      </trkpt>
      <trkpt lat="49.60237" lon="4.95637">
        <ele>183.75</ele>
        <time>2020-09-27T13:03:51Z</time>
      </trkpt>
      <trkpt lat="49.60228" lon="4.95617">
        <ele>176.54</ele>
        <time>2020-09-27T13:04:07Z</time>
      </trkpt>
      <trkpt lat="49.60227" lon="4.956">
        <ele>173.66</ele>
        <time>2020-09-27T13:04:21Z</time>
      </trkpt>
      <trkpt lat="49.60238" lon="4.95595">
        <ele>170.29</ele>
        <time>2020-09-27T13:04:42Z</time>
      </trkpt>
      <trkpt lat="49.60251" lon="4.95586">
        <ele>172.69</ele>
        <time>2020-09-27T13:04:58Z</time>
      </trkpt>
      <trkpt lat="49.60257" lon="4.95585">
        <ele>176.54</ele>
        <time>2020-09-27T13:05:03Z</time>
      </trkpt>
      <trkpt lat="49.60277" lon="4.95603">
        <ele>181.35</ele>
        <time>2020-09-27T13:05:24Z</time>
      </trkpt>
      <trkpt lat="49.60298" lon="4.95622">
        <ele>183.27</ele>
        <time>2020-09-27T13:05:44Z</time>
      </trkpt>
      <trkpt lat="49.60315" lon="4.9564">
        <ele>185.67</ele>
        <time>2020-09-27T13:06:03Z</time>
      </trkpt>
      <trkpt lat="49.60332" lon="4.95661">
        <ele>184.71</ele>
        <time>2020-09-27T13:06:22Z</time>
      </trkpt>
      <trkpt lat="49.60348" lon="4.95682">
        <ele>185.67</ele>
        <time>2020-09-27T13:06:40Z</time>
      </trkpt>
      <trkpt lat="49.60369" lon="4.95697">
        <ele>188.08</ele>
        <time>2020-09-27T13:06:58Z</time>
      </trkpt>
      <trkpt lat="49.6039" lon="4.95707">
        <ele>190.48</ele>
        <time>2020-09-27T13:07:18Z</time>
      </trkpt>
      <trkpt lat="49.60395" lon="4.95709">
        <ele>189.52</ele>
        <time>2020-09-27T13:07:22Z</time>
      </trkpt>
      <trkpt lat="49.60404" lon="4.95712">
        <ele>187.59</ele>
        <time>2020-09-27T13:07:30Z</time>
      </trkpt>
      <trkpt lat="49.60412" lon="4.95711">
        <ele>187.11</ele>
        <time>2020-09-27T13:07:37Z</time>
      </trkpt>
      <trkpt lat="49.60436" lon="4.95704">
        <ele>185.67</ele>
        <time>2020-09-27T13:07:58Z</time>
      </trkpt>
      <trkpt lat="49.60455" lon="4.95684">
        <ele>186.63</ele>
        <time>2020-09-27T13:08:18Z</time>
      </trkpt>
      <trkpt lat="49.60472" lon="4.95659">
        <ele>182.31</ele>
        <time>2020-09-27T13:08:38Z</time>
      </trkpt>
      <trkpt lat="49.60485" lon="4.9564">
        <ele>180.38</ele>
        <time>2020-09-27T13:08:54Z</time>
      </trkpt>
      <trkpt lat="49.60512" lon="4.95622">
        <ele>182.79</ele>
        <time>2020-09-27T13:09:18Z</time>
      </trkpt>
      <trkpt lat="49.6053" lon="4.95615">
        <ele>182.31</ele>
        <time>2020-09-27T13:09:35Z</time>
      </trkpt>
      <trkpt lat="49.60548" lon="4.95602">
        <ele>185.19</ele>
        <time>2020-09-27T13:09:52Z</time>
      </trkpt>
      <trkpt lat="49.6057" lon="4.95587">
        <ele>187.59</ele>
        <time>2020-09-27T13:10:13Z</time>
      </trkpt>
      <trkpt lat="49.60591" lon="4.95576">
        <ele>187.59</ele>
        <time>2020-09-27T13:10:31Z</time>
      </trkpt>
      <trkpt lat="49.60612" lon="4.95565">
        <ele>188.56</ele>
        <time>2020-09-27T13:10:50Z</time>
      </trkpt>
      <trkpt lat="49.60617" lon="4.95559">
        <ele>188.56</ele>
        <time>2020-09-27T13:10:56Z</time>
      </trkpt>
      <trkpt lat="49.60638" lon="4.9554">
        <ele>191.92</ele>
        <time>2020-09-27T13:11:17Z</time>
      </trkpt>
      <trkpt lat="49.60658" lon="4.95521">
        <ele>196.25</ele>
        <time>2020-09-27T13:11:37Z</time>
      </trkpt>
      <trkpt lat="49.60677" lon="4.95505">
        <ele>196.73</ele>
        <time>2020-09-27T13:11:56Z</time>
      </trkpt>
      <trkpt lat="49.60702" lon="4.95484">
        <ele>196.25</ele>
        <time>2020-09-27T13:12:18Z</time>
      </trkpt>
      <trkpt lat="49.60725" lon="4.95474">
        <ele>193.36</ele>
        <time>2020-09-27T13:12:38Z</time>
      </trkpt>
      <trkpt lat="49.6075" lon="4.95463">
        <ele>195.77</ele>
        <time>2020-09-27T13:12:58Z</time>
      </trkpt>
      <trkpt lat="49.60776" lon="4.95454">
        <ele>196.73</ele>
        <time>2020-09-27T13:13:20Z</time>
      </trkpt>
      <trkpt lat="49.60798" lon="4.95454">
        <ele>197.21</ele>
        <time>2020-09-27T13:13:42Z</time>
      </trkpt>
      <trkpt lat="49.60818" lon="4.95454">
        <ele>195.28</ele>
        <time>2020-09-27T13:14:01Z</time>
      </trkpt>
      <trkpt lat="49.6084" lon="4.95457">
        <ele>193.36</ele>
        <time>2020-09-27T13:14:21Z</time>
      </trkpt>
      <trkpt lat="49.60867" lon="4.95463">
        <ele>189.52</ele>
        <time>2020-09-27T13:14:40Z</time>
      </trkpt>
      <trkpt lat="49.60884" lon="4.9547">
        <ele>184.71</ele>
        <time>2020-09-27T13:15:00Z</time>
      </trkpt>
      <trkpt lat="49.60885" lon="4.95472">
        <ele>184.23</ele>
        <time>2020-09-27T13:15:19Z</time>
      </trkpt>
      <trkpt lat="49.60884" lon="4.95472">
        <ele>183.75</ele>
        <time>2020-09-27T13:15:35Z</time>
      </trkpt>
      <trkpt lat="49.60884" lon="4.95473">
        <ele>184.71</ele>
        <time>2020-09-27T13:15:56Z</time>
      </trkpt>
      <trkpt lat="49.60883" lon="4.95473">
        <ele>186.15</ele>
        <time>2020-09-27T13:16:22Z</time>
      </trkpt>
      <trkpt lat="49.60884" lon="4.95473">
        <ele>185.67</ele>
        <time>2020-09-27T13:16:43Z</time>
      </trkpt>
      <trkpt lat="49.60884" lon="4.95474">
        <ele>186.15</ele>
        <time>2020-09-27T13:17:10Z</time>
      </trkpt>
      <trkpt lat="49.60885" lon="4.95475">
        <ele>186.63</ele>
        <time>2020-09-27T13:17:47Z</time>
      </trkpt>
      <trkpt lat="49.60885" lon="4.95475">
        <ele>186.63</ele>
        <time>2020-09-27T13:18:20Z</time>
      </trkpt>
      <trkpt lat="49.60885" lon="4.95473">
        <ele>187.11</ele>
        <time>2020-09-27T13:18:47Z</time>
      </trkpt>
      <trkpt lat="49.60887" lon="4.95473">
        <ele>186.63</ele>
        <time>2020-09-27T13:19:05Z</time>
      </trkpt>
      <trkpt lat="49.60885" lon="4.95473">
        <ele>183.75</ele>
        <time>2020-09-27T13:19:44Z</time>
      </trkpt>
      <trkpt lat="49.60884" lon="4.95473">
        <ele>182.31</ele>
        <time>2020-09-27T13:20:22Z</time>
      </trkpt>
      <trkpt lat="49.60884" lon="4.95473">
        <ele>182.31</ele>
        <time>2020-09-27T13:20:53Z</time>
      </trkpt>
      <trkpt lat="49.60885" lon="4.95476">
        <ele>181.83</ele>
        <time>2020-09-27T13:21:39Z</time>
      </trkpt>
      <trkpt lat="49.60885" lon="4.95474">
        <ele>182.79</ele>
        <time>2020-09-27T13:22:10Z</time>
      </trkpt>
      <trkpt lat="49.60885" lon="4.95472">
        <ele>183.27</ele>
        <time>2020-09-27T13:22:46Z</time>
      </trkpt>
      <trkpt lat="49.60885" lon="4.95471">
        <ele>183.75</ele>
        <time>2020-09-27T13:23:21Z</time>
      </trkpt>
      <trkpt lat="49.60886" lon="4.95473">
        <ele>184.23</ele>
        <time>2020-09-27T13:23:52Z</time>
      </trkpt>
      <trkpt lat="49.60886" lon="4.95473">
        <ele>184.23</ele>
        <time>2020-09-27T13:24:12Z</time>
      </trkpt>
      <trkpt lat="49.60885" lon="4.95473">
        <ele>182.79</ele>
        <time>2020-09-27T13:24:36Z</time>
      </trkpt>
      <trkpt lat="49.60883" lon="4.95475">
        <ele>184.71</ele>
        <time>2020-09-27T13:25:11Z</time>
      </trkpt>
      <trkpt lat="49.60884" lon="4.95479">
        <ele>185.67</ele>
        <time>2020-09-27T13:25:49Z</time>
      </trkpt>
      <trkpt lat="49.60884" lon="4.95479">
        <ele>186.63</ele>
        <time>2020-09-27T13:26:26Z</time>
      </trkpt>
      <trkpt lat="49.60884" lon="4.9548">
        <ele>187.59</ele>
        <time>2020-09-27T13:27:03Z</time>
      </trkpt>
      <trkpt lat="49.60884" lon="4.95478">
        <ele>188.56</ele>
        <time>2020-09-27T13:27:41Z</time>
      </trkpt>
      <trkpt lat="49.60883" lon="4.95477">
        <ele>188.56</ele>
        <time>2020-09-27T13:27:55Z</time>
      </trkpt>
      <trkpt lat="49.60883" lon="4.95474">
        <ele>188.08</ele>
        <time>2020-09-27T13:28:10Z</time>
      </trkpt>
      <trkpt lat="49.60879" lon="4.95469">
        <ele>187.11</ele>
        <time>2020-09-27T13:28:25Z</time>
      </trkpt>
      <trkpt lat="49.60877" lon="4.95454">
        <ele>186.63</ele>
        <time>2020-09-27T13:28:42Z</time>
      </trkpt>
      <trkpt lat="49.60889" lon="4.95456">
        <ele>187.59</ele>
        <time>2020-09-27T13:28:53Z</time>
      </trkpt>
      <trkpt lat="49.6091" lon="4.95465">
        <ele>187.11</ele>
        <time>2020-09-27T13:29:13Z</time>
      </trkpt>
      <trkpt lat="49.60928" lon="4.95475">
        <ele>186.15</ele>
        <time>2020-09-27T13:29:31Z</time>
      </trkpt>
      <trkpt lat="49.60947" lon="4.95483">
        <ele>185.19</ele>
        <time>2020-09-27T13:29:51Z</time>
      </trkpt>
      <trkpt lat="49.60964" lon="4.95492">
        <ele>183.75</ele>
        <time>2020-09-27T13:30:09Z</time>
      </trkpt>
      <trkpt lat="49.60985" lon="4.95502">
        <ele>182.31</ele>
        <time>2020-09-27T13:30:28Z</time>
      </trkpt>
      <trkpt lat="49.61006" lon="4.95516">
        <ele>184.71</ele>
        <time>2020-09-27T13:30:48Z</time>
      </trkpt>
      <trkpt lat="49.61023" lon="4.95527">
        <ele>186.15</ele>
        <time>2020-09-27T13:31:06Z</time>
      </trkpt>
      <trkpt lat="49.61045" lon="4.95538">
        <ele>186.63</ele>
        <time>2020-09-27T13:31:27Z</time>
      </trkpt>
      <trkpt lat="49.61068" lon="4.95545">
        <ele>189.52</ele>
        <time>2020-09-27T13:31:48Z</time>
      </trkpt>
      <trkpt lat="49.61081" lon="4.95538">
        <ele>190.96</ele>
        <time>2020-09-27T13:32:00Z</time>
      </trkpt>
      <trkpt lat="49.61098" lon="4.95522">
        <ele>194.32</ele>
        <time>2020-09-27T13:32:19Z</time>
      </trkpt>
      <trkpt lat="49.61115" lon="4.95519">
        <ele>193.36</ele>
        <time>2020-09-27T13:32:39Z</time>
      </trkpt>
      <trkpt lat="49.61128" lon="4.95522">
        <ele>191.44</ele>
        <time>2020-09-27T13:32:56Z</time>
      </trkpt>
      <trkpt lat="49.61151" lon="4.95527">
        <ele>188.08</ele>
        <time>2020-09-27T13:33:16Z</time>
      </trkpt>
      <trkpt lat="49.61168" lon="4.95534">
        <ele>187.11</ele>
        <time>2020-09-27T13:33:31Z</time>
      </trkpt>
      <trkpt lat="49.61193" lon="4.95544">
        <ele>188.08</ele>
        <time>2020-09-27T13:33:49Z</time>
      </trkpt>
      <trkpt lat="49.61212" lon="4.95552">
        <ele>187.59</ele>
        <time>2020-09-27T13:34:09Z</time>
      </trkpt>
      <trkpt lat="49.61234" lon="4.95558">
        <ele>185.67</ele>
        <time>2020-09-27T13:34:31Z</time>
      </trkpt>
      <trkpt lat="49.6126" lon="4.95577">
        <ele>188.56</ele>
        <time>2020-09-27T13:34:55Z</time>
      </trkpt>
      <trkpt lat="49.61273" lon="4.9558">
        <ele>188.08</ele>
        <time>2020-09-27T13:35:14Z</time>
      </trkpt>
      <trkpt lat="49.6129" lon="4.95592">
        <ele>186.63</ele>
        <time>2020-09-27T13:35:29Z</time>
      </trkpt>
      <trkpt lat="49.6131" lon="4.95604">
        <ele>186.15</ele>
        <time>2020-09-27T13:35:45Z</time>
      </trkpt>
      <trkpt lat="49.6133" lon="4.95621">
        <ele>187.59</ele>
        <time>2020-09-27T13:36:02Z</time>
      </trkpt>
      <trkpt lat="49.61343" lon="4.95651">
        <ele>187.59</ele>
        <time>2020-09-27T13:36:23Z</time>
      </trkpt>
      <trkpt lat="49.61351" lon="4.95676">
        <ele>185.19</ele>
        <time>2020-09-27T13:36:40Z</time>
      </trkpt>
      <trkpt lat="49.6136" lon="4.95701">
        <ele>183.75</ele>
        <time>2020-09-27T13:36:57Z</time>
      </trkpt>
      <trkpt lat="49.61375" lon="4.95724">
        <ele>185.67</ele>
        <time>2020-09-27T13:37:16Z</time>
      </trkpt>
      <trkpt lat="49.6139" lon="4.95743">
        <ele>186.63</ele>
        <time>2020-09-27T13:37:33Z</time>
      </trkpt>
      <trkpt lat="49.61405" lon="4.95758">
        <ele>189.52</ele>
        <time>2020-09-27T13:37:51Z</time>
      </trkpt>
      <trkpt lat="49.6142" lon="4.95777">
        <ele>190.96</ele>
        <time>2020-09-27T13:38:08Z</time>
      </trkpt>
      <trkpt lat="49.61427" lon="4.95785">
        <ele>191.92</ele>
        <time>2020-09-27T13:38:16Z</time>
      </trkpt>
      <trkpt lat="49.61446" lon="4.958">
        <ele>191.44</ele>
        <time>2020-09-27T13:38:36Z</time>
      </trkpt>
      <trkpt lat="49.61466" lon="4.95816">
        <ele>191.92</ele>
        <time>2020-09-27T13:38:55Z</time>
      </trkpt>
      <trkpt lat="49.61487" lon="4.95831">
        <ele>190.96</ele>
        <time>2020-09-27T13:39:18Z</time>
      </trkpt>
      <trkpt lat="49.61505" lon="4.95842">
        <ele>190.96</ele>
        <time>2020-09-27T13:39:36Z</time>
      </trkpt>
      <trkpt lat="49.61523" lon="4.95852">
        <ele>192.4</ele>
        <time>2020-09-27T13:39:54Z</time>
      </trkpt>
      <trkpt lat="49.61541" lon="4.95864">
        <ele>188.56</ele>
        <time>2020-09-27T13:40:14Z</time>
      </trkpt>
      <trkpt lat="49.61562" lon="4.95872">
        <ele>185.19</ele>
        <time>2020-09-27T13:40:33Z</time>
      </trkpt>
      <trkpt lat="49.61582" lon="4.95886">
        <ele>187.11</ele>
        <time>2020-09-27T13:40:52Z</time>
      </trkpt>
      <trkpt lat="49.61601" lon="4.95899">
        <ele>188.08</ele>
        <time>2020-09-27T13:41:12Z</time>
      </trkpt>
      <trkpt lat="49.6162" lon="4.95912">
        <ele>186.63</ele>
        <time>2020-09-27T13:41:33Z</time>
      </trkpt>
      <trkpt lat="49.6164" lon="4.95926">
        <ele>189.04</ele>
        <time>2020-09-27T13:41:52Z</time>
      </trkpt>
      <trkpt lat="49.61658" lon="4.95936">
        <ele>188.08</ele>
        <time>2020-09-27T13:42:10Z</time>
      </trkpt>
      <trkpt lat="49.61677" lon="4.95947">
        <ele>188.56</ele>
        <time>2020-09-27T13:42:27Z</time>
      </trkpt>
      <trkpt lat="49.61683" lon="4.95954">
        <ele>188.56</ele>
        <time>2020-09-27T13:42:40Z</time>
      </trkpt>
      <trkpt lat="49.61697" lon="4.95969">
        <ele>193.36</ele>
        <time>2020-09-27T13:42:53Z</time>
      </trkpt>
      <trkpt lat="49.61721" lon="4.95985">
        <ele>195.77</ele>
        <time>2020-09-27T13:43:14Z</time>
      </trkpt>
      <trkpt lat="49.61742" lon="4.95994">
        <ele>193.36</ele>
        <time>2020-09-27T13:43:35Z</time>
      </trkpt>
      <trkpt lat="49.61758" lon="4.95996">
        <ele>188.56</ele>
        <time>2020-09-27T13:43:52Z</time>
      </trkpt>
      <trkpt lat="49.61778" lon="4.96004">
        <ele>185.67</ele>
        <time>2020-09-27T13:44:10Z</time>
      </trkpt>
      <trkpt lat="49.61798" lon="4.96014">
        <ele>181.83</ele>
        <time>2020-09-27T13:44:31Z</time>
      </trkpt>
      <trkpt lat="49.61815" lon="4.96018">
        <ele>177.5</ele>
        <time>2020-09-27T13:44:50Z</time>
      </trkpt>
      <trkpt lat="49.61832" lon="4.96022">
        <ele>174.62</ele>
        <time>2020-09-27T13:45:06Z</time>
      </trkpt>
      <trkpt lat="49.61847" lon="4.96025">
        <ele>173.66</ele>
        <time>2020-09-27T13:45:19Z</time>
      </trkpt>
      <trkpt lat="49.61875" lon="4.96031">
        <ele>177.98</ele>
        <time>2020-09-27T13:45:41Z</time>
      </trkpt>
      <trkpt lat="49.61883" lon="4.96032">
        <ele>178.94</ele>
        <time>2020-09-27T13:45:49Z</time>
      </trkpt>
      <trkpt lat="49.61908" lon="4.96038">
        <ele>179.42</ele>
        <time>2020-09-27T13:46:11Z</time>
      </trkpt>
      <trkpt lat="49.6193" lon="4.96039">
        <ele>181.35</ele>
        <time>2020-09-27T13:46:29Z</time>
      </trkpt>
      <trkpt lat="49.61958" lon="4.96044">
        <ele>183.75</ele>
        <time>2020-09-27T13:46:53Z</time>
      </trkpt>
      <trkpt lat="49.61981" lon="4.96047">
        <ele>184.23</ele>
        <time>2020-09-27T13:47:14Z</time>
      </trkpt>
      <trkpt lat="49.62009" lon="4.96048">
        <ele>184.23</ele>
        <time>2020-09-27T13:47:37Z</time>
      </trkpt>
      <trkpt lat="49.62034" lon="4.96047">
        <ele>186.15</ele>
        <time>2020-09-27T13:48:00Z</time>
      </trkpt>
      <trkpt lat="49.62059" lon="4.96044">
        <ele>184.71</ele>
        <time>2020-09-27T13:48:23Z</time>
      </trkpt>
      <trkpt lat="49.6208" lon="4.9604">
        <ele>183.75</ele>
        <time>2020-09-27T13:48:43Z</time>
      </trkpt>
      <trkpt lat="49.62095" lon="4.96035">
        <ele>182.79</ele>
        <time>2020-09-27T13:48:57Z</time>
      </trkpt>
      <trkpt lat="49.62118" lon="4.96026">
        <ele>179.42</ele>
        <time>2020-09-27T13:49:18Z</time>
      </trkpt>
      <trkpt lat="49.62136" lon="4.96016">
        <ele>178.46</ele>
        <time>2020-09-27T13:49:37Z</time>
      </trkpt>
      <trkpt lat="49.6216" lon="4.96014">
        <ele>178.46</ele>
        <time>2020-09-27T13:49:58Z</time>
      </trkpt>
      <trkpt lat="49.62181" lon="4.96014">
        <ele>177.5</ele>
        <time>2020-09-27T13:50:18Z</time>
      </trkpt>
      <trkpt lat="49.62208" lon="4.96012">
        <ele>176.54</ele>
        <time>2020-09-27T13:50:40Z</time>
      </trkpt>
      <trkpt lat="49.62213" lon="4.96012">
        <ele>176.54</ele>
        <time>2020-09-27T13:50:47Z</time>
      </trkpt>
      <trkpt lat="49.62222" lon="4.96002">
        <ele>176.54</ele>
        <time>2020-09-27T13:50:56Z</time>
      </trkpt>
      <trkpt lat="49.62238" lon="4.96001">
        <ele>177.02</ele>
        <time>2020-09-27T13:51:13Z</time>
      </trkpt>
      <trkpt lat="49.62255" lon="4.96023">
        <ele>176.54</ele>
        <time>2020-09-27T13:51:31Z</time>
      </trkpt>
      <trkpt lat="49.62271" lon="4.96046">
        <ele>176.06</ele>
        <time>2020-09-27T13:51:51Z</time>
      </trkpt>
      <trkpt lat="49.62285" lon="4.96068">
        <ele>176.54</ele>
        <time>2020-09-27T13:52:08Z</time>
      </trkpt>
      <trkpt lat="49.62288" lon="4.96071">
        <ele>176.06</ele>
        <time>2020-09-27T13:52:11Z</time>
      </trkpt>
      <trkpt lat="49.62306" lon="4.96084">
        <ele>173.17</ele>
        <time>2020-09-27T13:52:29Z</time>
      </trkpt>
      <trkpt lat="49.62328" lon="4.96084">
        <ele>171.73</ele>
        <time>2020-09-27T13:52:50Z</time>
      </trkpt>
      <trkpt lat="49.6233" lon="4.96084">
        <ele>172.69</ele>
        <time>2020-09-27T13:52:52Z</time>
      </trkpt>
      <trkpt lat="49.6235" lon="4.96096">
        <ele>175.58</ele>
        <time>2020-09-27T13:53:10Z</time>
      </trkpt>
      <trkpt lat="49.62363" lon="4.9611">
        <ele>176.54</ele>
        <time>2020-09-27T13:53:27Z</time>
      </trkpt>
      <trkpt lat="49.6237" lon="4.96121">
        <ele>173.66</ele>
        <time>2020-09-27T13:53:43Z</time>
      </trkpt>
      <trkpt lat="49.62372" lon="4.96122">
        <ele>173.66</ele>
        <time>2020-09-27T13:53:59Z</time>
      </trkpt>
      <trkpt lat="49.62387" lon="4.9613">
        <ele>172.21</ele>
        <time>2020-09-27T13:54:17Z</time>
      </trkpt>
      <trkpt lat="49.62409" lon="4.9613">
        <ele>172.21</ele>
        <time>2020-09-27T13:54:35Z</time>
      </trkpt>
      <trkpt lat="49.62438" lon="4.96129">
        <ele>174.62</ele>
        <time>2020-09-27T13:54:59Z</time>
      </trkpt>
      <trkpt lat="49.62452" lon="4.96135">
        <ele>173.66</ele>
        <time>2020-09-27T13:55:13Z</time>
      </trkpt>
      <trkpt lat="49.6248" lon="4.96145">
        <ele>174.62</ele>
        <time>2020-09-27T13:55:35Z</time>
      </trkpt>
      <trkpt lat="49.62499" lon="4.96153">
        <ele>177.02</ele>
        <time>2020-09-27T13:55:52Z</time>
      </trkpt>
      <trkpt lat="49.62519" lon="4.96159">
        <ele>177.02</ele>
        <time>2020-09-27T13:56:11Z</time>
      </trkpt>
      <trkpt lat="49.62537" lon="4.96169">
        <ele>177.5</ele>
        <time>2020-09-27T13:56:28Z</time>
      </trkpt>
      <trkpt lat="49.62554" lon="4.96174">
        <ele>175.1</ele>
        <time>2020-09-27T13:56:46Z</time>
      </trkpt>
      <trkpt lat="49.62571" lon="4.96175">
        <ele>169.81</ele>
        <time>2020-09-27T13:57:04Z</time>
      </trkpt>
      <trkpt lat="49.62589" lon="4.96184">
        <ele>165.48</ele>
        <time>2020-09-27T13:57:25Z</time>
      </trkpt>
      <trkpt lat="49.62611" lon="4.96193">
        <ele>168.37</ele>
        <time>2020-09-27T13:57:43Z</time>
      </trkpt>
      <trkpt lat="49.62621" lon="4.96216">
        <ele>166.93</ele>
        <time>2020-09-27T13:58:00Z</time>
      </trkpt>
      <trkpt lat="49.62621" lon="4.9622">
        <ele>166.93</ele>
        <time>2020-09-27T13:58:02Z</time>
      </trkpt>
      <trkpt lat="49.62618" lon="4.96253">
        <ele>166.45</ele>
        <time>2020-09-27T13:58:21Z</time>
      </trkpt>
      <trkpt lat="49.62615" lon="4.96283">
        <ele>165.96</ele>
        <time>2020-09-27T13:58:38Z</time>
      </trkpt>
      <trkpt lat="49.62611" lon="4.96315">
        <ele>166.45</ele>
        <time>2020-09-27T13:58:58Z</time>
      </trkpt>
      <trkpt lat="49.62608" lon="4.96343">
        <ele>165</ele>
        <time>2020-09-27T13:59:16Z</time>
      </trkpt>
      <trkpt lat="49.62609" lon="4.96344">
        <ele>165</ele>
        <time>2020-09-27T13:59:17Z</time>
      </trkpt>
      <trkpt lat="49.62611" lon="4.96345">
        <ele>165.48</ele>
        <time>2020-09-27T13:59:21Z</time>
      </trkpt>
      <trkpt lat="49.62627" lon="4.96361">
        <ele>165.48</ele>
        <time>2020-09-27T13:59:40Z</time>
      </trkpt>
      <trkpt lat="49.6264" lon="4.96368">
        <ele>165</ele>
        <time>2020-09-27T13:59:59Z</time>
      </trkpt>
      <trkpt lat="49.62648" lon="4.9637">
        <ele>165.48</ele>
        <time>2020-09-27T14:00:17Z</time>
      </trkpt>
      <trkpt lat="49.62667" lon="4.96378">
        <ele>169.33</ele>
        <time>2020-09-27T14:00:36Z</time>
      </trkpt>
      <trkpt lat="49.62681" lon="4.96388">
        <ele>167.89</ele>
        <time>2020-09-27T14:00:54Z</time>
      </trkpt>
      <trkpt lat="49.62681" lon="4.96387">
        <ele>168.85</ele>
        <time>2020-09-27T14:01:22Z</time>
      </trkpt>
      <trkpt lat="49.62681" lon="4.96388">
        <ele>168.85</ele>
        <time>2020-09-27T14:01:55Z</time>
      </trkpt>
      <trkpt lat="49.62681" lon="4.96388">
        <ele>169.33</ele>
        <time>2020-09-27T14:02:36Z</time>
      </trkpt>
      <trkpt lat="49.62681" lon="4.96387">
        <ele>170.77</ele>
        <time>2020-09-27T14:02:53Z</time>
      </trkpt>
      <trkpt lat="49.62695" lon="4.96394">
        <ele>170.77</ele>
        <time>2020-09-27T14:03:10Z</time>
      </trkpt>
      <trkpt lat="49.62713" lon="4.96406">
        <ele>171.25</ele>
        <time>2020-09-27T14:03:26Z</time>
      </trkpt>
      <trkpt lat="49.62734" lon="4.96416">
        <ele>171.73</ele>
        <time>2020-09-27T14:03:43Z</time>
      </trkpt>
      <trkpt lat="49.62752" lon="4.96429">
        <ele>171.73</ele>
        <time>2020-09-27T14:04:03Z</time>
      </trkpt>
      <trkpt lat="49.62769" lon="4.96437">
        <ele>172.21</ele>
        <time>2020-09-27T14:04:20Z</time>
      </trkpt>
      <trkpt lat="49.62789" lon="4.96449">
        <ele>172.69</ele>
        <time>2020-09-27T14:04:42Z</time>
      </trkpt>
      <trkpt lat="49.62803" lon="4.96457">
        <ele>170.77</ele>
        <time>2020-09-27T14:05:01Z</time>
      </trkpt>
      <trkpt lat="49.62831" lon="4.9647">
        <ele>169.81</ele>
        <time>2020-09-27T14:05:21Z</time>
      </trkpt>
      <trkpt lat="49.62854" lon="4.9648">
        <ele>169.81</ele>
        <time>2020-09-27T14:05:40Z</time>
      </trkpt>
      <trkpt lat="49.62865" lon="4.96488">
        <ele>169.33</ele>
        <time>2020-09-27T14:06:00Z</time>
      </trkpt>
      <trkpt lat="49.62893" lon="4.96505">
        <ele>172.69</ele>
        <time>2020-09-27T14:06:17Z</time>
      </trkpt>
      <trkpt lat="49.62894" lon="4.96506">
        <ele>172.69</ele>
        <time>2020-09-27T14:06:18Z</time>
      </trkpt>
      <trkpt lat="49.62899" lon="4.96512">
        <ele>173.17</ele>
        <time>2020-09-27T14:06:33Z</time>
      </trkpt>
      <trkpt lat="49.62911" lon="4.96515">
        <ele>172.21</ele>
        <time>2020-09-27T14:06:50Z</time>
      </trkpt>
      <trkpt lat="49.62926" lon="4.96528">
        <ele>170.29</ele>
        <time>2020-09-27T14:07:10Z</time>
      </trkpt>
      <trkpt lat="49.62953" lon="4.96549">
        <ele>163.56</ele>
        <time>2020-09-27T14:07:35Z</time>
      </trkpt>
      <trkpt lat="49.62973" lon="4.96568">
        <ele>159.24</ele>
        <time>2020-09-27T14:07:55Z</time>
      </trkpt>
      <trkpt lat="49.6299" lon="4.96583">
        <ele>158.27</ele>
        <time>2020-09-27T14:08:15Z</time>
      </trkpt>
      <trkpt lat="49.63013" lon="4.96603">
        <ele>159.72</ele>
        <time>2020-09-27T14:08:34Z</time>
      </trkpt>
      <trkpt lat="49.63028" lon="4.96618">
        <ele>164.04</ele>
        <time>2020-09-27T14:08:54Z</time>
      </trkpt>
      <trkpt lat="49.63041" lon="4.96628">
        <ele>162.6</ele>
        <time>2020-09-27T14:09:15Z</time>
      </trkpt>
      <trkpt lat="49.63069" lon="4.9665">
        <ele>165.48</ele>
        <time>2020-09-27T14:09:35Z</time>
      </trkpt>
      <trkpt lat="49.63089" lon="4.96671">
        <ele>167.89</ele>
        <time>2020-09-27T14:09:57Z</time>
      </trkpt>
      <trkpt lat="49.63108" lon="4.96689">
        <ele>167.89</ele>
        <time>2020-09-27T14:10:16Z</time>
      </trkpt>
      <trkpt lat="49.63126" lon="4.96706">
        <ele>167.89</ele>
        <time>2020-09-27T14:10:35Z</time>
      </trkpt>
      <trkpt lat="49.63147" lon="4.96726">
        <ele>166.93</ele>
        <time>2020-09-27T14:10:57Z</time>
      </trkpt>
      <trkpt lat="49.63166" lon="4.96741">
        <ele>165.96</ele>
        <time>2020-09-27T14:11:18Z</time>
      </trkpt>
      <trkpt lat="49.63181" lon="4.96755">
        <ele>166.45</ele>
        <time>2020-09-27T14:11:36Z</time>
      </trkpt>
      <trkpt lat="49.63199" lon="4.96774">
        <ele>168.37</ele>
        <time>2020-09-27T14:11:55Z</time>
      </trkpt>
      <trkpt lat="49.63215" lon="4.96795">
        <ele>169.81</ele>
        <time>2020-09-27T14:12:14Z</time>
      </trkpt>
      <trkpt lat="49.63228" lon="4.96809">
        <ele>172.21</ele>
        <time>2020-09-27T14:12:29Z</time>
      </trkpt>
      <trkpt lat="49.6324" lon="4.96827">
        <ele>175.1</ele>
        <time>2020-09-27T14:12:45Z</time>
      </trkpt>
      <trkpt lat="49.6325" lon="4.96853">
        <ele>175.58</ele>
        <time>2020-09-27T14:13:00Z</time>
      </trkpt>
      <trkpt lat="49.63259" lon="4.96875">
        <ele>172.21</ele>
        <time>2020-09-27T14:13:15Z</time>
      </trkpt>
      <trkpt lat="49.63271" lon="4.96896">
        <ele>170.77</ele>
        <time>2020-09-27T14:13:33Z</time>
      </trkpt>
      <trkpt lat="49.63282" lon="4.96926">
        <ele>166.45</ele>
        <time>2020-09-27T14:13:52Z</time>
      </trkpt>
      <trkpt lat="49.63291" lon="4.96953">
        <ele>159.72</ele>
        <time>2020-09-27T14:14:09Z</time>
      </trkpt>
      <trkpt lat="49.63299" lon="4.96986">
        <ele>156.35</ele>
        <time>2020-09-27T14:14:29Z</time>
      </trkpt>
      <trkpt lat="49.63303" lon="4.97018">
        <ele>157.31</ele>
        <time>2020-09-27T14:14:45Z</time>
      </trkpt>
      <trkpt lat="49.63313" lon="4.97051">
        <ele>154.43</ele>
        <time>2020-09-27T14:15:05Z</time>
      </trkpt>
      <trkpt lat="49.63322" lon="4.97067">
        <ele>145.78</ele>
        <time>2020-09-27T14:15:23Z</time>
      </trkpt>
      <trkpt lat="49.63325" lon="4.9708">
        <ele>142.89</ele>
        <time>2020-09-27T14:15:43Z</time>
      </trkpt>
      <trkpt lat="49.63325" lon="4.9709">
        <ele>142.41</ele>
        <time>2020-09-27T14:15:59Z</time>
      </trkpt>
      <trkpt lat="49.63326" lon="4.97098">
        <ele>144.34</ele>
        <time>2020-09-27T14:16:18Z</time>
      </trkpt>
      <trkpt lat="49.63335" lon="4.97121">
        <ele>141.93</ele>
        <time>2020-09-27T14:16:35Z</time>
      </trkpt>
      <trkpt lat="49.63347" lon="4.97161">
        <ele>138.57</ele>
        <time>2020-09-27T14:16:53Z</time>
      </trkpt>
      <trkpt lat="49.63358" lon="4.97191">
        <ele>135.68</ele>
        <time>2020-09-27T14:17:11Z</time>
      </trkpt>
      <trkpt lat="49.63371" lon="4.97224">
        <ele>133.76</ele>
        <time>2020-09-27T14:17:29Z</time>
      </trkpt>
      <trkpt lat="49.63377" lon="4.97236">
        <ele>134.24</ele>
        <time>2020-09-27T14:17:46Z</time>
      </trkpt>
      <trkpt lat="49.63393" lon="4.9726">
        <ele>131.36</ele>
        <time>2020-09-27T14:18:03Z</time>
      </trkpt>
      <trkpt lat="49.63404" lon="4.97276">
        <ele>127.99</ele>
        <time>2020-09-27T14:18:18Z</time>
      </trkpt>
      <trkpt lat="49.63417" lon="4.97296">
        <ele>122.71</ele>
        <time>2020-09-27T14:18:35Z</time>
      </trkpt>
      <trkpt lat="49.63433" lon="4.97321">
        <ele>116.94</ele>
        <time>2020-09-27T14:18:53Z</time>
      </trkpt>
      <trkpt lat="49.63447" lon="4.9734">
        <ele>113.09</ele>
        <time>2020-09-27T14:19:11Z</time>
      </trkpt>
      <trkpt lat="49.6346" lon="4.97364">
        <ele>111.65</ele>
        <time>2020-09-27T14:19:29Z</time>
      </trkpt>
      <trkpt lat="49.63475" lon="4.97407">
        <ele>115.98</ele>
        <time>2020-09-27T14:19:53Z</time>
      </trkpt>
      <trkpt lat="49.63486" lon="4.97427">
        <ele>114.05</ele>
        <time>2020-09-27T14:20:07Z</time>
      </trkpt>
      <trkpt lat="49.635" lon="4.97457">
        <ele>118.38</ele>
        <time>2020-09-27T14:20:25Z</time>
      </trkpt>
      <trkpt lat="49.63509" lon="4.97484">
        <ele>125.59</ele>
        <time>2020-09-27T14:20:41Z</time>
      </trkpt>
      <trkpt lat="49.63517" lon="4.9752">
        <ele>147.7</ele>
        <time>2020-09-27T14:21:01Z</time>
      </trkpt>
      <trkpt lat="49.63531" lon="4.9755">
        <ele>151.06</ele>
        <time>2020-09-27T14:21:19Z</time>
      </trkpt>
      <trkpt lat="49.63546" lon="4.97577">
        <ele>152.99</ele>
        <time>2020-09-27T14:21:37Z</time>
      </trkpt>
      <trkpt lat="49.63549" lon="4.97576">
        <ele>155.39</ele>
        <time>2020-09-27T14:21:54Z</time>
      </trkpt>
      <trkpt lat="49.6355" lon="4.97575">
        <ele>156.35</ele>
        <time>2020-09-27T14:22:13Z</time>
      </trkpt>
      <trkpt lat="49.63551" lon="4.97574">
        <ele>157.31</ele>
        <time>2020-09-27T14:22:37Z</time>
      </trkpt>
      <trkpt lat="49.63551" lon="4.97574">
        <ele>157.79</ele>
        <time>2020-09-27T14:23:03Z</time>
      </trkpt>
      <trkpt lat="49.63551" lon="4.97573">
        <ele>157.79</ele>
        <time>2020-09-27T14:23:26Z</time>
      </trkpt>
      <trkpt lat="49.63551" lon="4.97574">
        <ele>157.31</ele>
        <time>2020-09-27T14:23:52Z</time>
      </trkpt>
      <trkpt lat="49.63552" lon="4.97574">
        <ele>158.27</ele>
        <time>2020-09-27T14:24:20Z</time>
      </trkpt>
      <trkpt lat="49.63552" lon="4.97575">
        <ele>158.27</ele>
        <time>2020-09-27T14:24:44Z</time>
      </trkpt>
      <trkpt lat="49.63552" lon="4.97575">
        <ele>157.79</ele>
        <time>2020-09-27T14:25:11Z</time>
      </trkpt>
      <trkpt lat="49.63552" lon="4.97575">
        <ele>158.27</ele>
        <time>2020-09-27T14:25:40Z</time>
      </trkpt>
      <trkpt lat="49.63553" lon="4.97575">
        <ele>158.27</ele>
        <time>2020-09-27T14:26:07Z</time>
      </trkpt>
      <trkpt lat="49.63553" lon="4.97574">
        <ele>158.75</ele>
        <time>2020-09-27T14:26:33Z</time>
      </trkpt>
      <trkpt lat="49.63553" lon="4.97574">
        <ele>158.75</ele>
        <time>2020-09-27T14:27:05Z</time>
      </trkpt>
      <trkpt lat="49.63553" lon="4.97574">
        <ele>158.75</ele>
        <time>2020-09-27T14:27:32Z</time>
      </trkpt>
      <trkpt lat="49.63553" lon="4.97574">
        <ele>159.24</ele>
        <time>2020-09-27T14:27:57Z</time>
      </trkpt>
      <trkpt lat="49.63553" lon="4.97574">
        <ele>159.24</ele>
        <time>2020-09-27T14:28:20Z</time>
      </trkpt>
      <trkpt lat="49.63553" lon="4.97575">
        <ele>159.72</ele>
        <time>2020-09-27T14:28:46Z</time>
      </trkpt>
      <trkpt lat="49.63554" lon="4.97575">
        <ele>159.72</ele>
        <time>2020-09-27T14:29:11Z</time>
      </trkpt>
      <trkpt lat="49.63554" lon="4.97575">
        <ele>160.2</ele>
        <time>2020-09-27T14:29:35Z</time>
      </trkpt>
      <trkpt lat="49.63555" lon="4.97577">
        <ele>160.2</ele>
        <time>2020-09-27T14:29:58Z</time>
      </trkpt>
      <trkpt lat="49.63561" lon="4.9759">
        <ele>160.2</ele>
        <time>2020-09-27T14:30:08Z</time>
      </trkpt>
      <trkpt lat="49.63575" lon="4.97617">
        <ele>157.79</ele>
        <time>2020-09-27T14:30:27Z</time>
      </trkpt>
      <trkpt lat="49.63593" lon="4.97641">
        <ele>158.27</ele>
        <time>2020-09-27T14:30:48Z</time>
      </trkpt>
      <trkpt lat="49.63598" lon="4.97646">
        <ele>157.79</ele>
        <time>2020-09-27T14:30:56Z</time>
      </trkpt>
      <trkpt lat="49.63594" lon="4.9767">
        <ele>156.83</ele>
        <time>2020-09-27T14:31:11Z</time>
      </trkpt>
      <trkpt lat="49.63578" lon="4.97688">
        <ele>156.35</ele>
        <time>2020-09-27T14:31:31Z</time>
      </trkpt>
      <trkpt lat="49.63562" lon="4.97709">
        <ele>158.27</ele>
        <time>2020-09-27T14:31:52Z</time>
      </trkpt>
      <trkpt lat="49.63548" lon="4.97737">
        <ele>158.27</ele>
        <time>2020-09-27T14:32:13Z</time>
      </trkpt>
      <trkpt lat="49.63536" lon="4.97769">
        <ele>160.68</ele>
        <time>2020-09-27T14:32:34Z</time>
      </trkpt>
      <trkpt lat="49.63535" lon="4.9777">
        <ele>160.68</ele>
        <time>2020-09-27T14:32:35Z</time>
      </trkpt>
      <trkpt lat="49.63519" lon="4.97786">
        <ele>164.04</ele>
        <time>2020-09-27T14:32:54Z</time>
      </trkpt>
      <trkpt lat="49.63505" lon="4.97802">
        <ele>163.56</ele>
        <time>2020-09-27T14:33:10Z</time>
      </trkpt>
      <trkpt lat="49.63486" lon="4.97824">
        <ele>162.6</ele>
        <time>2020-09-27T14:33:30Z</time>
      </trkpt>
      <trkpt lat="49.63484" lon="4.97831">
        <ele>162.6</ele>
        <time>2020-09-27T14:33:34Z</time>
      </trkpt>
      <trkpt lat="49.6347" lon="4.97856">
        <ele>164.52</ele>
        <time>2020-09-27T14:33:53Z</time>
      </trkpt>
      <trkpt lat="49.63449" lon="4.97878">
        <ele>167.89</ele>
        <time>2020-09-27T14:34:15Z</time>
      </trkpt>
      <trkpt lat="49.63433" lon="4.97893">
        <ele>169.81</ele>
        <time>2020-09-27T14:34:32Z</time>
      </trkpt>
      <trkpt lat="49.63416" lon="4.97903">
        <ele>172.69</ele>
        <time>2020-09-27T14:34:50Z</time>
      </trkpt>
      <trkpt lat="49.634" lon="4.97917">
        <ele>173.17</ele>
        <time>2020-09-27T14:35:10Z</time>
      </trkpt>
      <trkpt lat="49.63385" lon="4.97942">
        <ele>171.25</ele>
        <time>2020-09-27T14:35:29Z</time>
      </trkpt>
      <trkpt lat="49.63396" lon="4.97975">
        <ele>172.21</ele>
        <time>2020-09-27T14:35:50Z</time>
      </trkpt>
      <trkpt lat="49.63408" lon="4.98002">
        <ele>171.25</ele>
        <time>2020-09-27T14:36:09Z</time>
      </trkpt>
      <trkpt lat="49.63418" lon="4.98028">
        <ele>168.37</ele>
        <time>2020-09-27T14:36:25Z</time>
      </trkpt>
      <trkpt lat="49.63423" lon="4.98036">
        <ele>166.93</ele>
        <time>2020-09-27T14:36:32Z</time>
      </trkpt>
      <trkpt lat="49.63437" lon="4.98049">
        <ele>167.41</ele>
        <time>2020-09-27T14:36:47Z</time>
      </trkpt>
      <trkpt lat="49.63448" lon="4.98058">
        <ele>168.37</ele>
        <time>2020-09-27T14:37:04Z</time>
      </trkpt>
      <trkpt lat="49.6345" lon="4.98053">
        <ele>174.62</ele>
        <time>2020-09-27T14:37:15Z</time>
      </trkpt>
      <trkpt lat="49.63486" lon="4.98077">
        <ele>58.78</ele>
        <time>2020-09-27T14:47:29Z</time>
      </trkpt>
      <trkpt lat="49.63491" lon="4.98083">
        <ele>76.56</ele>
        <time>2020-09-27T14:47:37Z</time>
      </trkpt>
    </trkseg>
  </trk>
</gpx>